<?xml version="1.0" encoding="UTF-8" standalone="no" ?>
<gpx xmlns="http://www.topografix.com/GPX/1/1" xmlns:xsi="http://www.w3.org/2001/XMLSchema-instance" xsi:schemaLocation="http://www.topografix.com/GPX/1/1 http://www.topografix.com/GPX/1/1/gpx.xsd" version="1.1" creator="VisuGPX - https://www.visugpx.com">
  <metadata>
    <name>Randonnée NOMPATELIZE</name>
    <desc><![CDATA[Nompatelize- Circuit des Fossottes- La Salle- les Vieux Champs- la Molière.]]></desc>
  </metadata>
  <trk>
    <name><![CDATA[2018-02-08 16:24:12]]></name>
    <trkseg>
      <trkpt lat="48.32552" lon="6.85284">
        <ele>372.84</ele>
        <time>2018-02-08T12:31:06Z</time>
      </trkpt>
      <trkpt lat="48.32553" lon="6.85284">
        <ele>372.84</ele>
        <time>2018-02-08T12:31:07Z</time>
      </trkpt>
      <trkpt lat="48.32554" lon="6.85282">
        <ele>371.9</ele>
        <time>2018-02-08T12:31:31Z</time>
      </trkpt>
      <trkpt lat="48.32556" lon="6.85282">
        <ele>371.88</ele>
        <time>2018-02-08T12:31:47Z</time>
      </trkpt>
      <trkpt lat="48.32557" lon="6.85282">
        <ele>372.38</ele>
        <time>2018-02-08T12:32:14Z</time>
      </trkpt>
      <trkpt lat="48.32558" lon="6.85278">
        <ele>371.89</ele>
        <time>2018-02-08T12:32:38Z</time>
      </trkpt>
      <trkpt lat="48.32558" lon="6.85279">
        <ele>372.7</ele>
        <time>2018-02-08T12:32:56Z</time>
      </trkpt>
      <trkpt lat="48.32556" lon="6.8528">
        <ele>372.28</ele>
        <time>2018-02-08T12:33:24Z</time>
      </trkpt>
      <trkpt lat="48.32558" lon="6.85282">
        <ele>371.79</ele>
        <time>2018-02-08T12:33:47Z</time>
      </trkpt>
      <trkpt lat="48.3256" lon="6.85282">
        <ele>373.24</ele>
        <time>2018-02-08T12:34:13Z</time>
      </trkpt>
      <trkpt lat="48.32564" lon="6.85279">
        <ele>372.89</ele>
        <time>2018-02-08T12:34:29Z</time>
      </trkpt>
      <trkpt lat="48.32562" lon="6.85276">
        <ele>373.07</ele>
        <time>2018-02-08T12:34:58Z</time>
      </trkpt>
      <trkpt lat="48.32564" lon="6.85276">
        <ele>373.38</ele>
        <time>2018-02-08T12:35:27Z</time>
      </trkpt>
      <trkpt lat="48.32561" lon="6.85275">
        <ele>373.63</ele>
        <time>2018-02-08T12:35:54Z</time>
      </trkpt>
      <trkpt lat="48.3256" lon="6.85278">
        <ele>372.65</ele>
        <time>2018-02-08T12:36:19Z</time>
      </trkpt>
      <trkpt lat="48.32556" lon="6.85282">
        <ele>373.55</ele>
        <time>2018-02-08T12:36:36Z</time>
      </trkpt>
      <trkpt lat="48.3256" lon="6.85283">
        <ele>373.83</ele>
        <time>2018-02-08T12:36:51Z</time>
      </trkpt>
      <trkpt lat="48.32564" lon="6.85277">
        <ele>372.96</ele>
        <time>2018-02-08T12:36:57Z</time>
      </trkpt>
      <trkpt lat="48.32569" lon="6.85281">
        <ele>373.57</ele>
        <time>2018-02-08T12:37:02Z</time>
      </trkpt>
      <trkpt lat="48.3258" lon="6.85263">
        <ele>373.4</ele>
        <time>2018-02-08T12:37:15Z</time>
      </trkpt>
      <trkpt lat="48.3259" lon="6.85238">
        <ele>374.17</ele>
        <time>2018-02-08T12:37:27Z</time>
      </trkpt>
      <trkpt lat="48.32585" lon="6.85239">
        <ele>374.33</ele>
        <time>2018-02-08T12:37:44Z</time>
      </trkpt>
      <trkpt lat="48.32583" lon="6.8524">
        <ele>374.62</ele>
        <time>2018-02-08T12:38:27Z</time>
      </trkpt>
      <trkpt lat="48.32587" lon="6.8524">
        <ele>375.2</ele>
        <time>2018-02-08T12:38:34Z</time>
      </trkpt>
      <trkpt lat="48.32588" lon="6.8524">
        <ele>374.78</ele>
        <time>2018-02-08T12:38:35Z</time>
      </trkpt>
      <trkpt lat="48.32601" lon="6.85251">
        <ele>375.33</ele>
        <time>2018-02-08T12:38:50Z</time>
      </trkpt>
      <trkpt lat="48.32604" lon="6.85252">
        <ele>375.5</ele>
        <time>2018-02-08T12:39:11Z</time>
      </trkpt>
      <trkpt lat="48.32601" lon="6.85253">
        <ele>375.48</ele>
        <time>2018-02-08T12:39:40Z</time>
      </trkpt>
      <trkpt lat="48.326" lon="6.85249">
        <ele>375.18</ele>
        <time>2018-02-08T12:39:43Z</time>
      </trkpt>
      <trkpt lat="48.32597" lon="6.85226">
        <ele>374.36</ele>
        <time>2018-02-08T12:39:58Z</time>
      </trkpt>
      <trkpt lat="48.32597" lon="6.85215">
        <ele>374.17</ele>
        <time>2018-02-08T12:40:12Z</time>
      </trkpt>
      <trkpt lat="48.326" lon="6.85211">
        <ele>373.73</ele>
        <time>2018-02-08T12:40:19Z</time>
      </trkpt>
      <trkpt lat="48.32602" lon="6.8521">
        <ele>374.43</ele>
        <time>2018-02-08T12:40:20Z</time>
      </trkpt>
      <trkpt lat="48.32604" lon="6.85208">
        <ele>374.1</ele>
        <time>2018-02-08T12:40:22Z</time>
      </trkpt>
      <trkpt lat="48.32617" lon="6.85191">
        <ele>373.4</ele>
        <time>2018-02-08T12:40:36Z</time>
      </trkpt>
      <trkpt lat="48.32632" lon="6.85175">
        <ele>372.79</ele>
        <time>2018-02-08T12:40:52Z</time>
      </trkpt>
      <trkpt lat="48.32649" lon="6.8516">
        <ele>372.78</ele>
        <time>2018-02-08T12:41:08Z</time>
      </trkpt>
      <trkpt lat="48.3267" lon="6.85126">
        <ele>372.32</ele>
        <time>2018-02-08T12:41:31Z</time>
      </trkpt>
      <trkpt lat="48.32672" lon="6.85119">
        <ele>371.89</ele>
        <time>2018-02-08T12:41:35Z</time>
      </trkpt>
      <trkpt lat="48.32672" lon="6.85118">
        <ele>371.93</ele>
        <time>2018-02-08T12:41:36Z</time>
      </trkpt>
      <trkpt lat="48.32673" lon="6.85116">
        <ele>371.65</ele>
        <time>2018-02-08T12:41:37Z</time>
      </trkpt>
      <trkpt lat="48.32674" lon="6.85114">
        <ele>371.65</ele>
        <time>2018-02-08T12:41:38Z</time>
      </trkpt>
      <trkpt lat="48.32675" lon="6.85113">
        <ele>372</ele>
        <time>2018-02-08T12:41:39Z</time>
      </trkpt>
      <trkpt lat="48.32682" lon="6.85089">
        <ele>371.61</ele>
        <time>2018-02-08T12:41:53Z</time>
      </trkpt>
      <trkpt lat="48.32691" lon="6.8506">
        <ele>372.11</ele>
        <time>2018-02-08T12:42:09Z</time>
      </trkpt>
      <trkpt lat="48.32702" lon="6.85028">
        <ele>373.1</ele>
        <time>2018-02-08T12:42:28Z</time>
      </trkpt>
      <trkpt lat="48.32701" lon="6.85005">
        <ele>372.92</ele>
        <time>2018-02-08T12:42:41Z</time>
      </trkpt>
      <trkpt lat="48.32687" lon="6.84995">
        <ele>370.92</ele>
        <time>2018-02-08T12:42:55Z</time>
      </trkpt>
      <trkpt lat="48.32667" lon="6.84991">
        <ele>368.12</ele>
        <time>2018-02-08T12:43:13Z</time>
      </trkpt>
      <trkpt lat="48.32649" lon="6.84993">
        <ele>367.33</ele>
        <time>2018-02-08T12:43:28Z</time>
      </trkpt>
      <trkpt lat="48.32629" lon="6.84994">
        <ele>367.34</ele>
        <time>2018-02-08T12:43:44Z</time>
      </trkpt>
      <trkpt lat="48.32606" lon="6.84983">
        <ele>367.59</ele>
        <time>2018-02-08T12:44:04Z</time>
      </trkpt>
      <trkpt lat="48.32589" lon="6.84989">
        <ele>368.54</ele>
        <time>2018-02-08T12:44:19Z</time>
      </trkpt>
      <trkpt lat="48.3257" lon="6.84989">
        <ele>369.48</ele>
        <time>2018-02-08T12:44:35Z</time>
      </trkpt>
      <trkpt lat="48.32563" lon="6.84984">
        <ele>369.49</ele>
        <time>2018-02-08T12:44:43Z</time>
      </trkpt>
      <trkpt lat="48.32562" lon="6.84983">
        <ele>369.43</ele>
        <time>2018-02-08T12:44:44Z</time>
      </trkpt>
      <trkpt lat="48.32561" lon="6.84983">
        <ele>370</ele>
        <time>2018-02-08T12:44:45Z</time>
      </trkpt>
      <trkpt lat="48.32544" lon="6.84971">
        <ele>369.72</ele>
        <time>2018-02-08T12:45:01Z</time>
      </trkpt>
      <trkpt lat="48.32532" lon="6.84954">
        <ele>370.31</ele>
        <time>2018-02-08T12:45:15Z</time>
      </trkpt>
      <trkpt lat="48.32529" lon="6.84939">
        <ele>369.8</ele>
        <time>2018-02-08T12:45:24Z</time>
      </trkpt>
      <trkpt lat="48.32528" lon="6.84937">
        <ele>370.32</ele>
        <time>2018-02-08T12:45:25Z</time>
      </trkpt>
      <trkpt lat="48.32531" lon="6.84912">
        <ele>370.56</ele>
        <time>2018-02-08T12:45:40Z</time>
      </trkpt>
      <trkpt lat="48.32535" lon="6.84898">
        <ele>371.12</ele>
        <time>2018-02-08T12:45:48Z</time>
      </trkpt>
      <trkpt lat="48.32536" lon="6.84897">
        <ele>371.2</ele>
        <time>2018-02-08T12:45:49Z</time>
      </trkpt>
      <trkpt lat="48.32539" lon="6.84888">
        <ele>370.88</ele>
        <time>2018-02-08T12:45:55Z</time>
      </trkpt>
      <trkpt lat="48.3254" lon="6.84887">
        <ele>371.43</ele>
        <time>2018-02-08T12:45:56Z</time>
      </trkpt>
      <trkpt lat="48.32548" lon="6.8486">
        <ele>372.61</ele>
        <time>2018-02-08T12:46:13Z</time>
      </trkpt>
      <trkpt lat="48.32549" lon="6.84827">
        <ele>373.49</ele>
        <time>2018-02-08T12:46:32Z</time>
      </trkpt>
      <trkpt lat="48.3255" lon="6.84825">
        <ele>373.39</ele>
        <time>2018-02-08T12:46:33Z</time>
      </trkpt>
      <trkpt lat="48.3255" lon="6.84824">
        <ele>373.9</ele>
        <time>2018-02-08T12:46:34Z</time>
      </trkpt>
      <trkpt lat="48.32545" lon="6.84794">
        <ele>373.91</ele>
        <time>2018-02-08T12:46:51Z</time>
      </trkpt>
      <trkpt lat="48.32542" lon="6.84787">
        <ele>375.05</ele>
        <time>2018-02-08T12:46:55Z</time>
      </trkpt>
      <trkpt lat="48.32542" lon="6.84785">
        <ele>375.2</ele>
        <time>2018-02-08T12:46:56Z</time>
      </trkpt>
      <trkpt lat="48.32541" lon="6.84783">
        <ele>375.32</ele>
        <time>2018-02-08T12:46:57Z</time>
      </trkpt>
      <trkpt lat="48.32535" lon="6.84765">
        <ele>375.55</ele>
        <time>2018-02-08T12:47:07Z</time>
      </trkpt>
      <trkpt lat="48.32534" lon="6.84764">
        <ele>375.55</ele>
        <time>2018-02-08T12:47:08Z</time>
      </trkpt>
      <trkpt lat="48.32533" lon="6.84762">
        <ele>376.14</ele>
        <time>2018-02-08T12:47:09Z</time>
      </trkpt>
      <trkpt lat="48.32533" lon="6.84761">
        <ele>376.52</ele>
        <time>2018-02-08T12:47:10Z</time>
      </trkpt>
      <trkpt lat="48.32532" lon="6.84759">
        <ele>375.94</ele>
        <time>2018-02-08T12:47:11Z</time>
      </trkpt>
      <trkpt lat="48.32531" lon="6.84758">
        <ele>376.14</ele>
        <time>2018-02-08T12:47:12Z</time>
      </trkpt>
      <trkpt lat="48.32531" lon="6.84756">
        <ele>376.02</ele>
        <time>2018-02-08T12:47:13Z</time>
      </trkpt>
      <trkpt lat="48.3253" lon="6.84754">
        <ele>376.1</ele>
        <time>2018-02-08T12:47:14Z</time>
      </trkpt>
      <trkpt lat="48.32527" lon="6.84747">
        <ele>376.85</ele>
        <time>2018-02-08T12:47:19Z</time>
      </trkpt>
      <trkpt lat="48.32526" lon="6.84746">
        <ele>376.28</ele>
        <time>2018-02-08T12:47:20Z</time>
      </trkpt>
      <trkpt lat="48.32526" lon="6.84744">
        <ele>376.63</ele>
        <time>2018-02-08T12:47:21Z</time>
      </trkpt>
      <trkpt lat="48.32525" lon="6.84743">
        <ele>376.4</ele>
        <time>2018-02-08T12:47:22Z</time>
      </trkpt>
      <trkpt lat="48.32525" lon="6.84741">
        <ele>376.38</ele>
        <time>2018-02-08T12:47:23Z</time>
      </trkpt>
      <trkpt lat="48.32515" lon="6.84717">
        <ele>377.02</ele>
        <time>2018-02-08T12:47:39Z</time>
      </trkpt>
      <trkpt lat="48.3251" lon="6.847">
        <ele>377.94</ele>
        <time>2018-02-08T12:47:50Z</time>
      </trkpt>
      <trkpt lat="48.32499" lon="6.84674">
        <ele>377.54</ele>
        <time>2018-02-08T12:48:07Z</time>
      </trkpt>
      <trkpt lat="48.32496" lon="6.84665">
        <ele>377.68</ele>
        <time>2018-02-08T12:48:13Z</time>
      </trkpt>
      <trkpt lat="48.32492" lon="6.8464">
        <ele>378.49</ele>
        <time>2018-02-08T12:48:28Z</time>
      </trkpt>
      <trkpt lat="48.32496" lon="6.84617">
        <ele>378.18</ele>
        <time>2018-02-08T12:48:43Z</time>
      </trkpt>
      <trkpt lat="48.32499" lon="6.84607">
        <ele>378.52</ele>
        <time>2018-02-08T12:48:49Z</time>
      </trkpt>
      <trkpt lat="48.325" lon="6.84606">
        <ele>378.66</ele>
        <time>2018-02-08T12:48:50Z</time>
      </trkpt>
      <trkpt lat="48.32504" lon="6.84594">
        <ele>378.32</ele>
        <time>2018-02-08T12:48:57Z</time>
      </trkpt>
      <trkpt lat="48.32505" lon="6.84582">
        <ele>378.59</ele>
        <time>2018-02-08T12:49:04Z</time>
      </trkpt>
      <trkpt lat="48.32507" lon="6.84564">
        <ele>380.58</ele>
        <time>2018-02-08T12:49:16Z</time>
      </trkpt>
      <trkpt lat="48.32512" lon="6.84546">
        <ele>381.01</ele>
        <time>2018-02-08T12:49:27Z</time>
      </trkpt>
      <trkpt lat="48.32513" lon="6.84545">
        <ele>380.62</ele>
        <time>2018-02-08T12:49:28Z</time>
      </trkpt>
      <trkpt lat="48.32515" lon="6.84539">
        <ele>381.42</ele>
        <time>2018-02-08T12:49:32Z</time>
      </trkpt>
      <trkpt lat="48.32515" lon="6.84538">
        <ele>381.01</ele>
        <time>2018-02-08T12:49:33Z</time>
      </trkpt>
      <trkpt lat="48.32515" lon="6.84536">
        <ele>380.93</ele>
        <time>2018-02-08T12:49:34Z</time>
      </trkpt>
      <trkpt lat="48.32519" lon="6.84518">
        <ele>382.12</ele>
        <time>2018-02-08T12:49:47Z</time>
      </trkpt>
      <trkpt lat="48.3252" lon="6.84516">
        <ele>381.72</ele>
        <time>2018-02-08T12:49:48Z</time>
      </trkpt>
      <trkpt lat="48.3253" lon="6.84484">
        <ele>382.88</ele>
        <time>2018-02-08T12:50:08Z</time>
      </trkpt>
      <trkpt lat="48.32533" lon="6.84475">
        <ele>382.93</ele>
        <time>2018-02-08T12:50:13Z</time>
      </trkpt>
      <trkpt lat="48.32538" lon="6.84457">
        <ele>382.28</ele>
        <time>2018-02-08T12:50:25Z</time>
      </trkpt>
      <trkpt lat="48.32538" lon="6.84456">
        <ele>382.41</ele>
        <time>2018-02-08T12:50:26Z</time>
      </trkpt>
      <trkpt lat="48.32538" lon="6.84454">
        <ele>382.38</ele>
        <time>2018-02-08T12:50:27Z</time>
      </trkpt>
      <trkpt lat="48.32539" lon="6.84452">
        <ele>382.01</ele>
        <time>2018-02-08T12:50:28Z</time>
      </trkpt>
      <trkpt lat="48.32538" lon="6.8445">
        <ele>382.4</ele>
        <time>2018-02-08T12:50:29Z</time>
      </trkpt>
      <trkpt lat="48.32538" lon="6.84449">
        <ele>382.23</ele>
        <time>2018-02-08T12:50:30Z</time>
      </trkpt>
      <trkpt lat="48.32538" lon="6.84447">
        <ele>382.09</ele>
        <time>2018-02-08T12:50:31Z</time>
      </trkpt>
      <trkpt lat="48.32539" lon="6.84445">
        <ele>381.73</ele>
        <time>2018-02-08T12:50:32Z</time>
      </trkpt>
      <trkpt lat="48.32539" lon="6.84443">
        <ele>382</ele>
        <time>2018-02-08T12:50:33Z</time>
      </trkpt>
      <trkpt lat="48.3254" lon="6.84441">
        <ele>381.85</ele>
        <time>2018-02-08T12:50:34Z</time>
      </trkpt>
      <trkpt lat="48.32544" lon="6.84418">
        <ele>381.82</ele>
        <time>2018-02-08T12:50:48Z</time>
      </trkpt>
      <trkpt lat="48.32546" lon="6.84401">
        <ele>381.38</ele>
        <time>2018-02-08T12:50:59Z</time>
      </trkpt>
      <trkpt lat="48.32546" lon="6.84399">
        <ele>381.36</ele>
        <time>2018-02-08T12:51:00Z</time>
      </trkpt>
      <trkpt lat="48.32546" lon="6.84397">
        <ele>381.47</ele>
        <time>2018-02-08T12:51:01Z</time>
      </trkpt>
      <trkpt lat="48.32547" lon="6.84395">
        <ele>382.19</ele>
        <time>2018-02-08T12:51:02Z</time>
      </trkpt>
      <trkpt lat="48.32547" lon="6.84394">
        <ele>381.33</ele>
        <time>2018-02-08T12:51:03Z</time>
      </trkpt>
      <trkpt lat="48.32547" lon="6.84392">
        <ele>381.61</ele>
        <time>2018-02-08T12:51:04Z</time>
      </trkpt>
      <trkpt lat="48.32547" lon="6.8439">
        <ele>381.58</ele>
        <time>2018-02-08T12:51:05Z</time>
      </trkpt>
      <trkpt lat="48.32547" lon="6.84388">
        <ele>381.56</ele>
        <time>2018-02-08T12:51:06Z</time>
      </trkpt>
      <trkpt lat="48.32548" lon="6.84387">
        <ele>381.36</ele>
        <time>2018-02-08T12:51:07Z</time>
      </trkpt>
      <trkpt lat="48.32549" lon="6.84384">
        <ele>380.93</ele>
        <time>2018-02-08T12:51:09Z</time>
      </trkpt>
      <trkpt lat="48.32549" lon="6.84382">
        <ele>382.47</ele>
        <time>2018-02-08T12:51:10Z</time>
      </trkpt>
      <trkpt lat="48.3255" lon="6.84381">
        <ele>381.65</ele>
        <time>2018-02-08T12:51:11Z</time>
      </trkpt>
      <trkpt lat="48.3255" lon="6.84379">
        <ele>381.41</ele>
        <time>2018-02-08T12:51:12Z</time>
      </trkpt>
      <trkpt lat="48.32551" lon="6.84377">
        <ele>381.35</ele>
        <time>2018-02-08T12:51:13Z</time>
      </trkpt>
      <trkpt lat="48.32556" lon="6.84355">
        <ele>381.05</ele>
        <time>2018-02-08T12:51:26Z</time>
      </trkpt>
      <trkpt lat="48.32556" lon="6.84353">
        <ele>380.8</ele>
        <time>2018-02-08T12:51:27Z</time>
      </trkpt>
      <trkpt lat="48.32557" lon="6.84352">
        <ele>380.78</ele>
        <time>2018-02-08T12:51:28Z</time>
      </trkpt>
      <trkpt lat="48.32561" lon="6.84337">
        <ele>381.09</ele>
        <time>2018-02-08T12:51:40Z</time>
      </trkpt>
      <trkpt lat="48.32566" lon="6.84327">
        <ele>380.83</ele>
        <time>2018-02-08T12:51:53Z</time>
      </trkpt>
      <trkpt lat="48.32571" lon="6.84316">
        <ele>380.47</ele>
        <time>2018-02-08T12:52:09Z</time>
      </trkpt>
      <trkpt lat="48.32567" lon="6.84315">
        <ele>381.18</ele>
        <time>2018-02-08T12:52:31Z</time>
      </trkpt>
      <trkpt lat="48.32567" lon="6.84313">
        <ele>380.48</ele>
        <time>2018-02-08T12:52:49Z</time>
      </trkpt>
      <trkpt lat="48.32568" lon="6.84312">
        <ele>380.26</ele>
        <time>2018-02-08T12:52:50Z</time>
      </trkpt>
      <trkpt lat="48.32579" lon="6.84304">
        <ele>381.24</ele>
        <time>2018-02-08T12:53:02Z</time>
      </trkpt>
      <trkpt lat="48.32589" lon="6.84289">
        <ele>380.59</ele>
        <time>2018-02-08T12:53:14Z</time>
      </trkpt>
      <trkpt lat="48.32599" lon="6.84277">
        <ele>378.94</ele>
        <time>2018-02-08T12:53:25Z</time>
      </trkpt>
      <trkpt lat="48.326" lon="6.84277">
        <ele>380.83</ele>
        <time>2018-02-08T12:53:26Z</time>
      </trkpt>
      <trkpt lat="48.32602" lon="6.84274">
        <ele>380.33</ele>
        <time>2018-02-08T12:53:28Z</time>
      </trkpt>
      <trkpt lat="48.32617" lon="6.84251">
        <ele>379.43</ele>
        <time>2018-02-08T12:53:44Z</time>
      </trkpt>
      <trkpt lat="48.32626" lon="6.8423">
        <ele>378.93</ele>
        <time>2018-02-08T12:54:00Z</time>
      </trkpt>
      <trkpt lat="48.32626" lon="6.84228">
        <ele>378.69</ele>
        <time>2018-02-08T12:54:01Z</time>
      </trkpt>
      <trkpt lat="48.32626" lon="6.84226">
        <ele>378.11</ele>
        <time>2018-02-08T12:54:02Z</time>
      </trkpt>
      <trkpt lat="48.32626" lon="6.84224">
        <ele>379</ele>
        <time>2018-02-08T12:54:03Z</time>
      </trkpt>
      <trkpt lat="48.32626" lon="6.84222">
        <ele>378.89</ele>
        <time>2018-02-08T12:54:04Z</time>
      </trkpt>
      <trkpt lat="48.32626" lon="6.8422">
        <ele>378.84</ele>
        <time>2018-02-08T12:54:05Z</time>
      </trkpt>
      <trkpt lat="48.32626" lon="6.84219">
        <ele>379.42</ele>
        <time>2018-02-08T12:54:06Z</time>
      </trkpt>
      <trkpt lat="48.3263" lon="6.84212">
        <ele>379.12</ele>
        <time>2018-02-08T12:54:17Z</time>
      </trkpt>
      <trkpt lat="48.32631" lon="6.8421">
        <ele>379.3</ele>
        <time>2018-02-08T12:54:18Z</time>
      </trkpt>
      <trkpt lat="48.32632" lon="6.84209">
        <ele>378.63</ele>
        <time>2018-02-08T12:54:19Z</time>
      </trkpt>
      <trkpt lat="48.32632" lon="6.84207">
        <ele>378.6</ele>
        <time>2018-02-08T12:54:20Z</time>
      </trkpt>
      <trkpt lat="48.32633" lon="6.84206">
        <ele>377.99</ele>
        <time>2018-02-08T12:54:21Z</time>
      </trkpt>
      <trkpt lat="48.32634" lon="6.84204">
        <ele>378.44</ele>
        <time>2018-02-08T12:54:22Z</time>
      </trkpt>
      <trkpt lat="48.32639" lon="6.84188">
        <ele>376.52</ele>
        <time>2018-02-08T12:54:33Z</time>
      </trkpt>
      <trkpt lat="48.32639" lon="6.84182">
        <ele>376.7</ele>
        <time>2018-02-08T12:54:36Z</time>
      </trkpt>
      <trkpt lat="48.32641" lon="6.84169">
        <ele>375.22</ele>
        <time>2018-02-08T12:54:46Z</time>
      </trkpt>
      <trkpt lat="48.3265" lon="6.84138">
        <ele>372.51</ele>
        <time>2018-02-08T12:55:05Z</time>
      </trkpt>
      <trkpt lat="48.32657" lon="6.84108">
        <ele>370.56</ele>
        <time>2018-02-08T12:55:22Z</time>
      </trkpt>
      <trkpt lat="48.3266" lon="6.84073">
        <ele>368.25</ele>
        <time>2018-02-08T12:55:42Z</time>
      </trkpt>
      <trkpt lat="48.32663" lon="6.84052">
        <ele>367.29</ele>
        <time>2018-02-08T12:55:54Z</time>
      </trkpt>
      <trkpt lat="48.32663" lon="6.84047">
        <ele>367.18</ele>
        <time>2018-02-08T12:55:57Z</time>
      </trkpt>
      <trkpt lat="48.32664" lon="6.84032">
        <ele>366.27</ele>
        <time>2018-02-08T12:56:08Z</time>
      </trkpt>
      <trkpt lat="48.32665" lon="6.84028">
        <ele>366.42</ele>
        <time>2018-02-08T12:56:11Z</time>
      </trkpt>
      <trkpt lat="48.32667" lon="6.84009">
        <ele>364.73</ele>
        <time>2018-02-08T12:56:25Z</time>
      </trkpt>
      <trkpt lat="48.32675" lon="6.83982">
        <ele>362.3</ele>
        <time>2018-02-08T12:56:44Z</time>
      </trkpt>
      <trkpt lat="48.32678" lon="6.83964">
        <ele>361.79</ele>
        <time>2018-02-08T12:56:57Z</time>
      </trkpt>
      <trkpt lat="48.32678" lon="6.83937">
        <ele>360.39</ele>
        <time>2018-02-08T12:57:14Z</time>
      </trkpt>
      <trkpt lat="48.32682" lon="6.83905">
        <ele>358.79</ele>
        <time>2018-02-08T12:57:35Z</time>
      </trkpt>
      <trkpt lat="48.32683" lon="6.83877">
        <ele>357.05</ele>
        <time>2018-02-08T12:57:53Z</time>
      </trkpt>
      <trkpt lat="48.32689" lon="6.83845">
        <ele>356.04</ele>
        <time>2018-02-08T12:58:14Z</time>
      </trkpt>
      <trkpt lat="48.32687" lon="6.83813">
        <ele>354.07</ele>
        <time>2018-02-08T12:58:35Z</time>
      </trkpt>
      <trkpt lat="48.32683" lon="6.83783">
        <ele>353.2</ele>
        <time>2018-02-08T12:58:54Z</time>
      </trkpt>
      <trkpt lat="48.32682" lon="6.83747">
        <ele>350.84</ele>
        <time>2018-02-08T12:59:16Z</time>
      </trkpt>
      <trkpt lat="48.32683" lon="6.83714">
        <ele>348.46</ele>
        <time>2018-02-08T12:59:36Z</time>
      </trkpt>
      <trkpt lat="48.32684" lon="6.83678">
        <ele>347.59</ele>
        <time>2018-02-08T12:59:58Z</time>
      </trkpt>
      <trkpt lat="48.32675" lon="6.83664">
        <ele>344.49</ele>
        <time>2018-02-08T13:00:16Z</time>
      </trkpt>
      <trkpt lat="48.3266" lon="6.83649">
        <ele>344.91</ele>
        <time>2018-02-08T13:00:36Z</time>
      </trkpt>
      <trkpt lat="48.32644" lon="6.8363">
        <ele>345.22</ele>
        <time>2018-02-08T13:00:59Z</time>
      </trkpt>
      <trkpt lat="48.32635" lon="6.83618">
        <ele>345.48</ele>
        <time>2018-02-08T13:01:18Z</time>
      </trkpt>
      <trkpt lat="48.32633" lon="6.83614">
        <ele>345.43</ele>
        <time>2018-02-08T13:01:27Z</time>
      </trkpt>
      <trkpt lat="48.32632" lon="6.83614">
        <ele>345.46</ele>
        <time>2018-02-08T13:01:51Z</time>
      </trkpt>
      <trkpt lat="48.32624" lon="6.83613">
        <ele>346.86</ele>
        <time>2018-02-08T13:02:11Z</time>
      </trkpt>
      <trkpt lat="48.32628" lon="6.8362">
        <ele>345.91</ele>
        <time>2018-02-08T13:02:30Z</time>
      </trkpt>
      <trkpt lat="48.32615" lon="6.83614">
        <ele>347.92</ele>
        <time>2018-02-08T13:02:50Z</time>
      </trkpt>
      <trkpt lat="48.32597" lon="6.83602">
        <ele>350.44</ele>
        <time>2018-02-08T13:03:09Z</time>
      </trkpt>
      <trkpt lat="48.32583" lon="6.83591">
        <ele>352.25</ele>
        <time>2018-02-08T13:03:25Z</time>
      </trkpt>
      <trkpt lat="48.32573" lon="6.83582">
        <ele>352.52</ele>
        <time>2018-02-08T13:03:37Z</time>
      </trkpt>
      <trkpt lat="48.32553" lon="6.83567">
        <ele>352.82</ele>
        <time>2018-02-08T13:03:55Z</time>
      </trkpt>
      <trkpt lat="48.32522" lon="6.83549">
        <ele>353.37</ele>
        <time>2018-02-08T13:04:18Z</time>
      </trkpt>
      <trkpt lat="48.32498" lon="6.83538">
        <ele>354.2</ele>
        <time>2018-02-08T13:04:40Z</time>
      </trkpt>
      <trkpt lat="48.32478" lon="6.83524">
        <ele>353.86</ele>
        <time>2018-02-08T13:05:01Z</time>
      </trkpt>
      <trkpt lat="48.32468" lon="6.83518">
        <ele>354.18</ele>
        <time>2018-02-08T13:05:15Z</time>
      </trkpt>
      <trkpt lat="48.32456" lon="6.83497">
        <ele>353.78</ele>
        <time>2018-02-08T13:05:33Z</time>
      </trkpt>
      <trkpt lat="48.32447" lon="6.83485">
        <ele>354.54</ele>
        <time>2018-02-08T13:05:48Z</time>
      </trkpt>
      <trkpt lat="48.32435" lon="6.83461">
        <ele>354.99</ele>
        <time>2018-02-08T13:06:07Z</time>
      </trkpt>
      <trkpt lat="48.3243" lon="6.83453">
        <ele>355.05</ele>
        <time>2018-02-08T13:06:14Z</time>
      </trkpt>
      <trkpt lat="48.32429" lon="6.83446">
        <ele>354.76</ele>
        <time>2018-02-08T13:06:18Z</time>
      </trkpt>
      <trkpt lat="48.3242" lon="6.83418">
        <ele>355.26</ele>
        <time>2018-02-08T13:06:37Z</time>
      </trkpt>
      <trkpt lat="48.32413" lon="6.8341">
        <ele>354.95</ele>
        <time>2018-02-08T13:06:45Z</time>
      </trkpt>
      <trkpt lat="48.32398" lon="6.83397">
        <ele>355.59</ele>
        <time>2018-02-08T13:06:57Z</time>
      </trkpt>
      <trkpt lat="48.32393" lon="6.83388">
        <ele>355.25</ele>
        <time>2018-02-08T13:07:08Z</time>
      </trkpt>
      <trkpt lat="48.32377" lon="6.83362">
        <ele>354.62</ele>
        <time>2018-02-08T13:07:26Z</time>
      </trkpt>
      <trkpt lat="48.32373" lon="6.83361">
        <ele>354.32</ele>
        <time>2018-02-08T13:07:29Z</time>
      </trkpt>
      <trkpt lat="48.32361" lon="6.83361">
        <ele>353.05</ele>
        <time>2018-02-08T13:07:38Z</time>
      </trkpt>
      <trkpt lat="48.32358" lon="6.83359">
        <ele>354.12</ele>
        <time>2018-02-08T13:07:41Z</time>
      </trkpt>
      <trkpt lat="48.32347" lon="6.83362">
        <ele>353.51</ele>
        <time>2018-02-08T13:07:58Z</time>
      </trkpt>
      <trkpt lat="48.32347" lon="6.83362">
        <ele>352.98</ele>
        <time>2018-02-08T13:08:15Z</time>
      </trkpt>
      <trkpt lat="48.3235" lon="6.83373">
        <ele>355.11</ele>
        <time>2018-02-08T13:08:28Z</time>
      </trkpt>
      <trkpt lat="48.32352" lon="6.8338">
        <ele>355.55</ele>
        <time>2018-02-08T13:08:49Z</time>
      </trkpt>
      <trkpt lat="48.32354" lon="6.83382">
        <ele>355.09</ele>
        <time>2018-02-08T13:09:16Z</time>
      </trkpt>
      <trkpt lat="48.32352" lon="6.83378">
        <ele>355.05</ele>
        <time>2018-02-08T13:09:24Z</time>
      </trkpt>
      <trkpt lat="48.32352" lon="6.83382">
        <ele>355.45</ele>
        <time>2018-02-08T13:09:53Z</time>
      </trkpt>
      <trkpt lat="48.3235" lon="6.83373">
        <ele>354.53</ele>
        <time>2018-02-08T13:10:14Z</time>
      </trkpt>
      <trkpt lat="48.3235" lon="6.83362">
        <ele>354.42</ele>
        <time>2018-02-08T13:10:29Z</time>
      </trkpt>
      <trkpt lat="48.3235" lon="6.83362">
        <ele>354.28</ele>
        <time>2018-02-08T13:10:30Z</time>
      </trkpt>
      <trkpt lat="48.32347" lon="6.83364">
        <ele>354.19</ele>
        <time>2018-02-08T13:10:47Z</time>
      </trkpt>
      <trkpt lat="48.32353" lon="6.83358">
        <ele>355.61</ele>
        <time>2018-02-08T13:10:56Z</time>
      </trkpt>
      <trkpt lat="48.3236" lon="6.83356">
        <ele>355.91</ele>
        <time>2018-02-08T13:11:06Z</time>
      </trkpt>
      <trkpt lat="48.3236" lon="6.83361">
        <ele>355.58</ele>
        <time>2018-02-08T13:11:26Z</time>
      </trkpt>
      <trkpt lat="48.32359" lon="6.83356">
        <ele>355.28</ele>
        <time>2018-02-08T13:11:44Z</time>
      </trkpt>
      <trkpt lat="48.32356" lon="6.83341">
        <ele>356.8</ele>
        <time>2018-02-08T13:12:02Z</time>
      </trkpt>
      <trkpt lat="48.32364" lon="6.83345">
        <ele>356.49</ele>
        <time>2018-02-08T13:12:16Z</time>
      </trkpt>
      <trkpt lat="48.32366" lon="6.83346">
        <ele>357.25</ele>
        <time>2018-02-08T13:12:18Z</time>
      </trkpt>
      <trkpt lat="48.3237" lon="6.83348">
        <ele>357.77</ele>
        <time>2018-02-08T13:12:38Z</time>
      </trkpt>
      <trkpt lat="48.32372" lon="6.83355">
        <ele>354.45</ele>
        <time>2018-02-08T13:12:47Z</time>
      </trkpt>
      <trkpt lat="48.32372" lon="6.83356">
        <ele>360.29</ele>
        <time>2018-02-08T13:12:48Z</time>
      </trkpt>
      <trkpt lat="48.32372" lon="6.83357">
        <ele>357.19</ele>
        <time>2018-02-08T13:12:54Z</time>
      </trkpt>
      <trkpt lat="48.32369" lon="6.8334">
        <ele>357.93</ele>
        <time>2018-02-08T13:13:16Z</time>
      </trkpt>
      <trkpt lat="48.32363" lon="6.8333">
        <ele>357.3</ele>
        <time>2018-02-08T13:13:30Z</time>
      </trkpt>
      <trkpt lat="48.3236" lon="6.83315">
        <ele>357.86</ele>
        <time>2018-02-08T13:13:43Z</time>
      </trkpt>
      <trkpt lat="48.32349" lon="6.83294">
        <ele>358.11</ele>
        <time>2018-02-08T13:13:57Z</time>
      </trkpt>
      <trkpt lat="48.32345" lon="6.83284">
        <ele>358.24</ele>
        <time>2018-02-08T13:14:03Z</time>
      </trkpt>
      <trkpt lat="48.32343" lon="6.8328">
        <ele>358.11</ele>
        <time>2018-02-08T13:14:06Z</time>
      </trkpt>
      <trkpt lat="48.32338" lon="6.83276">
        <ele>357.89</ele>
        <time>2018-02-08T13:14:10Z</time>
      </trkpt>
      <trkpt lat="48.32336" lon="6.83271">
        <ele>357.7</ele>
        <time>2018-02-08T13:14:13Z</time>
      </trkpt>
      <trkpt lat="48.32327" lon="6.83252">
        <ele>357.26</ele>
        <time>2018-02-08T13:14:26Z</time>
      </trkpt>
      <trkpt lat="48.32318" lon="6.83246">
        <ele>356.87</ele>
        <time>2018-02-08T13:14:42Z</time>
      </trkpt>
      <trkpt lat="48.32317" lon="6.83243">
        <ele>356.81</ele>
        <time>2018-02-08T13:14:44Z</time>
      </trkpt>
      <trkpt lat="48.32305" lon="6.83224">
        <ele>357.38</ele>
        <time>2018-02-08T13:14:59Z</time>
      </trkpt>
      <trkpt lat="48.32302" lon="6.83208">
        <ele>356.65</ele>
        <time>2018-02-08T13:15:16Z</time>
      </trkpt>
      <trkpt lat="48.32284" lon="6.83179">
        <ele>356.94</ele>
        <time>2018-02-08T13:15:40Z</time>
      </trkpt>
      <trkpt lat="48.32272" lon="6.83172">
        <ele>357.06</ele>
        <time>2018-02-08T13:15:51Z</time>
      </trkpt>
      <trkpt lat="48.32263" lon="6.83167">
        <ele>357.04</ele>
        <time>2018-02-08T13:15:59Z</time>
      </trkpt>
      <trkpt lat="48.32244" lon="6.83147">
        <ele>357.28</ele>
        <time>2018-02-08T13:16:16Z</time>
      </trkpt>
      <trkpt lat="48.3224" lon="6.83144">
        <ele>357</ele>
        <time>2018-02-08T13:16:19Z</time>
      </trkpt>
      <trkpt lat="48.32238" lon="6.83143">
        <ele>357.1</ele>
        <time>2018-02-08T13:16:21Z</time>
      </trkpt>
      <trkpt lat="48.32227" lon="6.83137">
        <ele>357.26</ele>
        <time>2018-02-08T13:16:31Z</time>
      </trkpt>
      <trkpt lat="48.32219" lon="6.83131">
        <ele>357.36</ele>
        <time>2018-02-08T13:16:38Z</time>
      </trkpt>
      <trkpt lat="48.32195" lon="6.83131">
        <ele>358.75</ele>
        <time>2018-02-08T13:16:57Z</time>
      </trkpt>
      <trkpt lat="48.3218" lon="6.83124">
        <ele>359.1</ele>
        <time>2018-02-08T13:17:11Z</time>
      </trkpt>
      <trkpt lat="48.32167" lon="6.83099">
        <ele>358.86</ele>
        <time>2018-02-08T13:17:32Z</time>
      </trkpt>
      <trkpt lat="48.32157" lon="6.83079">
        <ele>358.73</ele>
        <time>2018-02-08T13:17:50Z</time>
      </trkpt>
      <trkpt lat="48.32155" lon="6.83077">
        <ele>358.2</ele>
        <time>2018-02-08T13:17:59Z</time>
      </trkpt>
      <trkpt lat="48.32152" lon="6.83063">
        <ele>358.39</ele>
        <time>2018-02-08T13:18:06Z</time>
      </trkpt>
      <trkpt lat="48.32143" lon="6.83037">
        <ele>359.48</ele>
        <time>2018-02-08T13:18:23Z</time>
      </trkpt>
      <trkpt lat="48.32142" lon="6.83035">
        <ele>359.93</ele>
        <time>2018-02-08T13:18:24Z</time>
      </trkpt>
      <trkpt lat="48.32148" lon="6.83011">
        <ele>359.37</ele>
        <time>2018-02-08T13:18:40Z</time>
      </trkpt>
      <trkpt lat="48.32159" lon="6.82987">
        <ele>358.77</ele>
        <time>2018-02-08T13:18:59Z</time>
      </trkpt>
      <trkpt lat="48.32169" lon="6.82963">
        <ele>358.39</ele>
        <time>2018-02-08T13:19:16Z</time>
      </trkpt>
      <trkpt lat="48.3218" lon="6.82939">
        <ele>358.71</ele>
        <time>2018-02-08T13:19:34Z</time>
      </trkpt>
      <trkpt lat="48.32193" lon="6.82916">
        <ele>358.88</ele>
        <time>2018-02-08T13:19:52Z</time>
      </trkpt>
      <trkpt lat="48.32202" lon="6.82902">
        <ele>359.8</ele>
        <time>2018-02-08T13:20:05Z</time>
      </trkpt>
      <trkpt lat="48.32215" lon="6.82879">
        <ele>360.89</ele>
        <time>2018-02-08T13:20:24Z</time>
      </trkpt>
      <trkpt lat="48.32225" lon="6.82863">
        <ele>361.74</ele>
        <time>2018-02-08T13:20:37Z</time>
      </trkpt>
      <trkpt lat="48.32235" lon="6.82847">
        <ele>362.07</ele>
        <time>2018-02-08T13:20:50Z</time>
      </trkpt>
      <trkpt lat="48.32244" lon="6.8283">
        <ele>363.33</ele>
        <time>2018-02-08T13:21:04Z</time>
      </trkpt>
      <trkpt lat="48.32254" lon="6.82818">
        <ele>363.74</ele>
        <time>2018-02-08T13:21:16Z</time>
      </trkpt>
      <trkpt lat="48.32267" lon="6.82801">
        <ele>364.3</ele>
        <time>2018-02-08T13:21:32Z</time>
      </trkpt>
      <trkpt lat="48.32279" lon="6.82784">
        <ele>365.38</ele>
        <time>2018-02-08T13:21:46Z</time>
      </trkpt>
      <trkpt lat="48.32282" lon="6.82781">
        <ele>366.21</ele>
        <time>2018-02-08T13:21:51Z</time>
      </trkpt>
      <trkpt lat="48.32295" lon="6.82762">
        <ele>365.92</ele>
        <time>2018-02-08T13:22:07Z</time>
      </trkpt>
      <trkpt lat="48.32306" lon="6.82748">
        <ele>366.25</ele>
        <time>2018-02-08T13:22:20Z</time>
      </trkpt>
      <trkpt lat="48.3231" lon="6.82741">
        <ele>366.58</ele>
        <time>2018-02-08T13:22:33Z</time>
      </trkpt>
      <trkpt lat="48.32316" lon="6.82734">
        <ele>367.33</ele>
        <time>2018-02-08T13:22:50Z</time>
      </trkpt>
      <trkpt lat="48.3232" lon="6.82736">
        <ele>368.73</ele>
        <time>2018-02-08T13:22:59Z</time>
      </trkpt>
      <trkpt lat="48.32336" lon="6.82744">
        <ele>369.14</ele>
        <time>2018-02-08T13:23:16Z</time>
      </trkpt>
      <trkpt lat="48.3234" lon="6.82747">
        <ele>369.32</ele>
        <time>2018-02-08T13:23:20Z</time>
      </trkpt>
      <trkpt lat="48.32351" lon="6.82753">
        <ele>369.54</ele>
        <time>2018-02-08T13:23:32Z</time>
      </trkpt>
      <trkpt lat="48.32356" lon="6.82756">
        <ele>370.06</ele>
        <time>2018-02-08T13:23:38Z</time>
      </trkpt>
      <trkpt lat="48.32363" lon="6.8276">
        <ele>370.1</ele>
        <time>2018-02-08T13:23:45Z</time>
      </trkpt>
      <trkpt lat="48.3237" lon="6.82762">
        <ele>370.75</ele>
        <time>2018-02-08T13:23:52Z</time>
      </trkpt>
      <trkpt lat="48.32377" lon="6.82765">
        <ele>370.76</ele>
        <time>2018-02-08T13:24:00Z</time>
      </trkpt>
      <trkpt lat="48.32387" lon="6.82779">
        <ele>371.35</ele>
        <time>2018-02-08T13:24:14Z</time>
      </trkpt>
      <trkpt lat="48.32397" lon="6.82805">
        <ele>371.41</ele>
        <time>2018-02-08T13:24:29Z</time>
      </trkpt>
      <trkpt lat="48.32402" lon="6.82836">
        <ele>372.23</ele>
        <time>2018-02-08T13:24:48Z</time>
      </trkpt>
      <trkpt lat="48.32401" lon="6.82863">
        <ele>372.35</ele>
        <time>2018-02-08T13:25:03Z</time>
      </trkpt>
      <trkpt lat="48.32401" lon="6.82878">
        <ele>373.46</ele>
        <time>2018-02-08T13:25:12Z</time>
      </trkpt>
      <trkpt lat="48.32401" lon="6.82898">
        <ele>372.78</ele>
        <time>2018-02-08T13:25:23Z</time>
      </trkpt>
      <trkpt lat="48.32406" lon="6.82929">
        <ele>374.9</ele>
        <time>2018-02-08T13:25:41Z</time>
      </trkpt>
      <trkpt lat="48.32406" lon="6.82935">
        <ele>373.93</ele>
        <time>2018-02-08T13:25:45Z</time>
      </trkpt>
      <trkpt lat="48.3241" lon="6.82967">
        <ele>374.49</ele>
        <time>2018-02-08T13:26:03Z</time>
      </trkpt>
      <trkpt lat="48.32417" lon="6.83004">
        <ele>375.81</ele>
        <time>2018-02-08T13:26:27Z</time>
      </trkpt>
      <trkpt lat="48.32424" lon="6.83033">
        <ele>376.08</ele>
        <time>2018-02-08T13:26:46Z</time>
      </trkpt>
      <trkpt lat="48.3243" lon="6.83062">
        <ele>376.32</ele>
        <time>2018-02-08T13:27:07Z</time>
      </trkpt>
      <trkpt lat="48.32435" lon="6.831">
        <ele>377.42</ele>
        <time>2018-02-08T13:27:30Z</time>
      </trkpt>
      <trkpt lat="48.3244" lon="6.83126">
        <ele>377.09</ele>
        <time>2018-02-08T13:27:47Z</time>
      </trkpt>
      <trkpt lat="48.32442" lon="6.83136">
        <ele>376.89</ele>
        <time>2018-02-08T13:27:53Z</time>
      </trkpt>
      <trkpt lat="48.32448" lon="6.83156">
        <ele>376.89</ele>
        <time>2018-02-08T13:28:06Z</time>
      </trkpt>
      <trkpt lat="48.32451" lon="6.83161">
        <ele>376.91</ele>
        <time>2018-02-08T13:28:10Z</time>
      </trkpt>
      <trkpt lat="48.32451" lon="6.83164">
        <ele>376.72</ele>
        <time>2018-02-08T13:28:12Z</time>
      </trkpt>
      <trkpt lat="48.32461" lon="6.83181">
        <ele>375.9</ele>
        <time>2018-02-08T13:28:26Z</time>
      </trkpt>
      <trkpt lat="48.32472" lon="6.83196">
        <ele>376.67</ele>
        <time>2018-02-08T13:28:40Z</time>
      </trkpt>
      <trkpt lat="48.32487" lon="6.83204">
        <ele>376.53</ele>
        <time>2018-02-08T13:28:54Z</time>
      </trkpt>
      <trkpt lat="48.32504" lon="6.83211">
        <ele>375.77</ele>
        <time>2018-02-08T13:29:09Z</time>
      </trkpt>
      <trkpt lat="48.32519" lon="6.83212">
        <ele>375.43</ele>
        <time>2018-02-08T13:29:22Z</time>
      </trkpt>
      <trkpt lat="48.32533" lon="6.83211">
        <ele>374.99</ele>
        <time>2018-02-08T13:29:34Z</time>
      </trkpt>
      <trkpt lat="48.32553" lon="6.83209">
        <ele>374.28</ele>
        <time>2018-02-08T13:29:51Z</time>
      </trkpt>
      <trkpt lat="48.32571" lon="6.83207">
        <ele>373.43</ele>
        <time>2018-02-08T13:30:07Z</time>
      </trkpt>
      <trkpt lat="48.32589" lon="6.83209">
        <ele>371.53</ele>
        <time>2018-02-08T13:30:22Z</time>
      </trkpt>
      <trkpt lat="48.32606" lon="6.8321">
        <ele>369.68</ele>
        <time>2018-02-08T13:30:37Z</time>
      </trkpt>
      <trkpt lat="48.3262" lon="6.8322">
        <ele>368.05</ele>
        <time>2018-02-08T13:30:51Z</time>
      </trkpt>
      <trkpt lat="48.3262" lon="6.83221">
        <ele>367.9</ele>
        <time>2018-02-08T13:30:52Z</time>
      </trkpt>
      <trkpt lat="48.32629" lon="6.83241">
        <ele>366.5</ele>
        <time>2018-02-08T13:31:07Z</time>
      </trkpt>
      <trkpt lat="48.32634" lon="6.83255">
        <ele>365.06</ele>
        <time>2018-02-08T13:31:18Z</time>
      </trkpt>
      <trkpt lat="48.32644" lon="6.83273">
        <ele>363.05</ele>
        <time>2018-02-08T13:31:32Z</time>
      </trkpt>
      <trkpt lat="48.32647" lon="6.83276">
        <ele>362.64</ele>
        <time>2018-02-08T13:31:35Z</time>
      </trkpt>
      <trkpt lat="48.32655" lon="6.83279">
        <ele>362.33</ele>
        <time>2018-02-08T13:31:43Z</time>
      </trkpt>
      <trkpt lat="48.32666" lon="6.83268">
        <ele>362.49</ele>
        <time>2018-02-08T13:31:53Z</time>
      </trkpt>
      <trkpt lat="48.3268" lon="6.83243">
        <ele>362.62</ele>
        <time>2018-02-08T13:32:13Z</time>
      </trkpt>
      <trkpt lat="48.32698" lon="6.83223">
        <ele>362.23</ele>
        <time>2018-02-08T13:32:33Z</time>
      </trkpt>
      <trkpt lat="48.32711" lon="6.83208">
        <ele>362.16</ele>
        <time>2018-02-08T13:32:49Z</time>
      </trkpt>
      <trkpt lat="48.32729" lon="6.83187">
        <ele>362.04</ele>
        <time>2018-02-08T13:33:09Z</time>
      </trkpt>
      <trkpt lat="48.32744" lon="6.83166">
        <ele>361.23</ele>
        <time>2018-02-08T13:33:27Z</time>
      </trkpt>
      <trkpt lat="48.32755" lon="6.8315">
        <ele>361.63</ele>
        <time>2018-02-08T13:33:45Z</time>
      </trkpt>
      <trkpt lat="48.32765" lon="6.83125">
        <ele>360.79</ele>
        <time>2018-02-08T13:34:05Z</time>
      </trkpt>
      <trkpt lat="48.32768" lon="6.8311">
        <ele>360.39</ele>
        <time>2018-02-08T13:34:16Z</time>
      </trkpt>
      <trkpt lat="48.32769" lon="6.83095">
        <ele>360.45</ele>
        <time>2018-02-08T13:34:35Z</time>
      </trkpt>
      <trkpt lat="48.3277" lon="6.83088">
        <ele>360.04</ele>
        <time>2018-02-08T13:34:47Z</time>
      </trkpt>
      <trkpt lat="48.32768" lon="6.83082">
        <ele>360.3</ele>
        <time>2018-02-08T13:34:51Z</time>
      </trkpt>
      <trkpt lat="48.32768" lon="6.8306">
        <ele>360.17</ele>
        <time>2018-02-08T13:35:06Z</time>
      </trkpt>
      <trkpt lat="48.32767" lon="6.83035">
        <ele>360.77</ele>
        <time>2018-02-08T13:35:20Z</time>
      </trkpt>
      <trkpt lat="48.32776" lon="6.83015">
        <ele>359.48</ele>
        <time>2018-02-08T13:35:34Z</time>
      </trkpt>
      <trkpt lat="48.32789" lon="6.83004">
        <ele>358.66</ele>
        <time>2018-02-08T13:35:50Z</time>
      </trkpt>
      <trkpt lat="48.32809" lon="6.82998">
        <ele>359.13</ele>
        <time>2018-02-08T13:36:13Z</time>
      </trkpt>
      <trkpt lat="48.32821" lon="6.82996">
        <ele>360.09</ele>
        <time>2018-02-08T13:36:24Z</time>
      </trkpt>
      <trkpt lat="48.32851" lon="6.82981">
        <ele>362.02</ele>
        <time>2018-02-08T13:36:48Z</time>
      </trkpt>
      <trkpt lat="48.32854" lon="6.82979">
        <ele>362.35</ele>
        <time>2018-02-08T13:36:52Z</time>
      </trkpt>
      <trkpt lat="48.32856" lon="6.82977">
        <ele>362.51</ele>
        <time>2018-02-08T13:36:55Z</time>
      </trkpt>
      <trkpt lat="48.32859" lon="6.82976">
        <ele>363.27</ele>
        <time>2018-02-08T13:36:57Z</time>
      </trkpt>
      <trkpt lat="48.32872" lon="6.82969">
        <ele>364.37</ele>
        <time>2018-02-08T13:37:11Z</time>
      </trkpt>
      <trkpt lat="48.32877" lon="6.82966">
        <ele>365.11</ele>
        <time>2018-02-08T13:37:15Z</time>
      </trkpt>
      <trkpt lat="48.32892" lon="6.82954">
        <ele>366.57</ele>
        <time>2018-02-08T13:37:30Z</time>
      </trkpt>
      <trkpt lat="48.32897" lon="6.82951">
        <ele>366.06</ele>
        <time>2018-02-08T13:37:37Z</time>
      </trkpt>
      <trkpt lat="48.32905" lon="6.82945">
        <ele>367.36</ele>
        <time>2018-02-08T13:37:44Z</time>
      </trkpt>
      <trkpt lat="48.32922" lon="6.82932">
        <ele>369.11</ele>
        <time>2018-02-08T13:37:59Z</time>
      </trkpt>
      <trkpt lat="48.32936" lon="6.82917">
        <ele>370.81</ele>
        <time>2018-02-08T13:38:16Z</time>
      </trkpt>
      <trkpt lat="48.32938" lon="6.82915">
        <ele>370.5</ele>
        <time>2018-02-08T13:38:18Z</time>
      </trkpt>
      <trkpt lat="48.32941" lon="6.82911">
        <ele>370.74</ele>
        <time>2018-02-08T13:38:21Z</time>
      </trkpt>
      <trkpt lat="48.32947" lon="6.82899">
        <ele>372.26</ele>
        <time>2018-02-08T13:38:30Z</time>
      </trkpt>
      <trkpt lat="48.32954" lon="6.82879">
        <ele>372.02</ele>
        <time>2018-02-08T13:38:42Z</time>
      </trkpt>
      <trkpt lat="48.32958" lon="6.82848">
        <ele>373.73</ele>
        <time>2018-02-08T13:39:00Z</time>
      </trkpt>
      <trkpt lat="48.32963" lon="6.82823">
        <ele>373.38</ele>
        <time>2018-02-08T13:39:15Z</time>
      </trkpt>
      <trkpt lat="48.32972" lon="6.82808">
        <ele>373.78</ele>
        <time>2018-02-08T13:39:31Z</time>
      </trkpt>
      <trkpt lat="48.32989" lon="6.82797">
        <ele>373.47</ele>
        <time>2018-02-08T13:39:47Z</time>
      </trkpt>
      <trkpt lat="48.33011" lon="6.82776">
        <ele>374.11</ele>
        <time>2018-02-08T13:40:08Z</time>
      </trkpt>
      <trkpt lat="48.3302" lon="6.82763">
        <ele>374.42</ele>
        <time>2018-02-08T13:40:23Z</time>
      </trkpt>
      <trkpt lat="48.33022" lon="6.8276">
        <ele>374.2</ele>
        <time>2018-02-08T13:40:45Z</time>
      </trkpt>
      <trkpt lat="48.33022" lon="6.8276">
        <ele>374.73</ele>
        <time>2018-02-08T13:41:13Z</time>
      </trkpt>
      <trkpt lat="48.33024" lon="6.82759">
        <ele>374.9</ele>
        <time>2018-02-08T13:41:34Z</time>
      </trkpt>
      <trkpt lat="48.3303" lon="6.8275">
        <ele>374.83</ele>
        <time>2018-02-08T13:41:54Z</time>
      </trkpt>
      <trkpt lat="48.33034" lon="6.82741">
        <ele>375.04</ele>
        <time>2018-02-08T13:42:09Z</time>
      </trkpt>
      <trkpt lat="48.33036" lon="6.82742">
        <ele>374.92</ele>
        <time>2018-02-08T13:42:33Z</time>
      </trkpt>
      <trkpt lat="48.33036" lon="6.8274">
        <ele>375.12</ele>
        <time>2018-02-08T13:43:05Z</time>
      </trkpt>
      <trkpt lat="48.33036" lon="6.8274">
        <ele>374.65</ele>
        <time>2018-02-08T13:43:37Z</time>
      </trkpt>
      <trkpt lat="48.33036" lon="6.8274">
        <ele>375.1</ele>
        <time>2018-02-08T13:44:08Z</time>
      </trkpt>
      <trkpt lat="48.33037" lon="6.8274">
        <ele>375.32</ele>
        <time>2018-02-08T13:44:36Z</time>
      </trkpt>
      <trkpt lat="48.33037" lon="6.82739">
        <ele>374.78</ele>
        <time>2018-02-08T13:45:10Z</time>
      </trkpt>
      <trkpt lat="48.33037" lon="6.8274">
        <ele>374.87</ele>
        <time>2018-02-08T13:45:41Z</time>
      </trkpt>
      <trkpt lat="48.33037" lon="6.8274">
        <ele>374.8</ele>
        <time>2018-02-08T13:46:08Z</time>
      </trkpt>
      <trkpt lat="48.33038" lon="6.82742">
        <ele>374.86</ele>
        <time>2018-02-08T13:46:39Z</time>
      </trkpt>
      <trkpt lat="48.3304" lon="6.8274">
        <ele>374.63</ele>
        <time>2018-02-08T13:47:08Z</time>
      </trkpt>
      <trkpt lat="48.33039" lon="6.8274">
        <ele>374.12</ele>
        <time>2018-02-08T13:47:33Z</time>
      </trkpt>
      <trkpt lat="48.33039" lon="6.82741">
        <ele>374.61</ele>
        <time>2018-02-08T13:48:00Z</time>
      </trkpt>
      <trkpt lat="48.33039" lon="6.82741">
        <ele>374.61</ele>
        <time>2018-02-08T13:48:28Z</time>
      </trkpt>
      <trkpt lat="48.33042" lon="6.82748">
        <ele>373.73</ele>
        <time>2018-02-08T13:48:41Z</time>
      </trkpt>
      <trkpt lat="48.33056" lon="6.82766">
        <ele>373.86</ele>
        <time>2018-02-08T13:48:58Z</time>
      </trkpt>
      <trkpt lat="48.33066" lon="6.82774">
        <ele>373.03</ele>
        <time>2018-02-08T13:49:08Z</time>
      </trkpt>
      <trkpt lat="48.3307" lon="6.82777">
        <ele>373.38</ele>
        <time>2018-02-08T13:49:12Z</time>
      </trkpt>
      <trkpt lat="48.33087" lon="6.8279">
        <ele>374.13</ele>
        <time>2018-02-08T13:49:29Z</time>
      </trkpt>
      <trkpt lat="48.33104" lon="6.82805">
        <ele>373.89</ele>
        <time>2018-02-08T13:49:46Z</time>
      </trkpt>
      <trkpt lat="48.33115" lon="6.8282">
        <ele>372.49</ele>
        <time>2018-02-08T13:50:00Z</time>
      </trkpt>
      <trkpt lat="48.33115" lon="6.82822">
        <ele>372.43</ele>
        <time>2018-02-08T13:50:01Z</time>
      </trkpt>
      <trkpt lat="48.33116" lon="6.82828">
        <ele>371.79</ele>
        <time>2018-02-08T13:50:13Z</time>
      </trkpt>
      <trkpt lat="48.33118" lon="6.82855">
        <ele>370.6</ele>
        <time>2018-02-08T13:50:30Z</time>
      </trkpt>
      <trkpt lat="48.3312" lon="6.82876">
        <ele>369.11</ele>
        <time>2018-02-08T13:50:47Z</time>
      </trkpt>
      <trkpt lat="48.33124" lon="6.82904">
        <ele>367.98</ele>
        <time>2018-02-08T13:51:07Z</time>
      </trkpt>
      <trkpt lat="48.33126" lon="6.82924">
        <ele>366.31</ele>
        <time>2018-02-08T13:51:21Z</time>
      </trkpt>
      <trkpt lat="48.33133" lon="6.82958">
        <ele>364.95</ele>
        <time>2018-02-08T13:51:43Z</time>
      </trkpt>
      <trkpt lat="48.33138" lon="6.8299">
        <ele>363.06</ele>
        <time>2018-02-08T13:52:05Z</time>
      </trkpt>
      <trkpt lat="48.3314" lon="6.83018">
        <ele>360.67</ele>
        <time>2018-02-08T13:52:26Z</time>
      </trkpt>
      <trkpt lat="48.33142" lon="6.83047">
        <ele>359.76</ele>
        <time>2018-02-08T13:52:47Z</time>
      </trkpt>
      <trkpt lat="48.33146" lon="6.83081">
        <ele>358.72</ele>
        <time>2018-02-08T13:53:07Z</time>
      </trkpt>
      <trkpt lat="48.3315" lon="6.83091">
        <ele>358.07</ele>
        <time>2018-02-08T13:53:14Z</time>
      </trkpt>
      <trkpt lat="48.33154" lon="6.83114">
        <ele>356.83</ele>
        <time>2018-02-08T13:53:29Z</time>
      </trkpt>
      <trkpt lat="48.33161" lon="6.83139">
        <ele>355.72</ele>
        <time>2018-02-08T13:53:45Z</time>
      </trkpt>
      <trkpt lat="48.33163" lon="6.83147">
        <ele>354.79</ele>
        <time>2018-02-08T13:53:50Z</time>
      </trkpt>
      <trkpt lat="48.33171" lon="6.83167">
        <ele>354.05</ele>
        <time>2018-02-08T13:54:04Z</time>
      </trkpt>
      <trkpt lat="48.33183" lon="6.83189">
        <ele>353.97</ele>
        <time>2018-02-08T13:54:20Z</time>
      </trkpt>
      <trkpt lat="48.33194" lon="6.83204">
        <ele>352.38</ele>
        <time>2018-02-08T13:54:34Z</time>
      </trkpt>
      <trkpt lat="48.33204" lon="6.83225">
        <ele>351.56</ele>
        <time>2018-02-08T13:54:49Z</time>
      </trkpt>
      <trkpt lat="48.33214" lon="6.83247">
        <ele>349.85</ele>
        <time>2018-02-08T13:55:05Z</time>
      </trkpt>
      <trkpt lat="48.33217" lon="6.83258">
        <ele>349.24</ele>
        <time>2018-02-08T13:55:13Z</time>
      </trkpt>
      <trkpt lat="48.3322" lon="6.8328">
        <ele>348.07</ele>
        <time>2018-02-08T13:55:28Z</time>
      </trkpt>
      <trkpt lat="48.33219" lon="6.8329">
        <ele>348.08</ele>
        <time>2018-02-08T13:55:34Z</time>
      </trkpt>
      <trkpt lat="48.33213" lon="6.83313">
        <ele>347.03</ele>
        <time>2018-02-08T13:55:49Z</time>
      </trkpt>
      <trkpt lat="48.33213" lon="6.83318">
        <ele>347.18</ele>
        <time>2018-02-08T13:55:52Z</time>
      </trkpt>
      <trkpt lat="48.33213" lon="6.83333">
        <ele>346.19</ele>
        <time>2018-02-08T13:56:06Z</time>
      </trkpt>
      <trkpt lat="48.33212" lon="6.83338">
        <ele>346</ele>
        <time>2018-02-08T13:56:09Z</time>
      </trkpt>
      <trkpt lat="48.33211" lon="6.83346">
        <ele>346.17</ele>
        <time>2018-02-08T13:56:13Z</time>
      </trkpt>
      <trkpt lat="48.3321" lon="6.83363">
        <ele>346.17</ele>
        <time>2018-02-08T13:56:24Z</time>
      </trkpt>
      <trkpt lat="48.33214" lon="6.83368">
        <ele>346.33</ele>
        <time>2018-02-08T13:56:43Z</time>
      </trkpt>
      <trkpt lat="48.33208" lon="6.8337">
        <ele>345.66</ele>
        <time>2018-02-08T13:57:12Z</time>
      </trkpt>
      <trkpt lat="48.33202" lon="6.83383">
        <ele>346.31</ele>
        <time>2018-02-08T13:57:32Z</time>
      </trkpt>
      <trkpt lat="48.33201" lon="6.834">
        <ele>346.67</ele>
        <time>2018-02-08T13:57:44Z</time>
      </trkpt>
      <trkpt lat="48.33204" lon="6.83416">
        <ele>346.4</ele>
        <time>2018-02-08T13:57:55Z</time>
      </trkpt>
      <trkpt lat="48.33207" lon="6.83428">
        <ele>345.74</ele>
        <time>2018-02-08T13:58:03Z</time>
      </trkpt>
      <trkpt lat="48.33209" lon="6.83433">
        <ele>345.68</ele>
        <time>2018-02-08T13:58:06Z</time>
      </trkpt>
      <trkpt lat="48.33212" lon="6.83455">
        <ele>346.71</ele>
        <time>2018-02-08T13:58:22Z</time>
      </trkpt>
      <trkpt lat="48.33214" lon="6.83466">
        <ele>346.32</ele>
        <time>2018-02-08T13:58:30Z</time>
      </trkpt>
      <trkpt lat="48.33218" lon="6.83492">
        <ele>346.18</ele>
        <time>2018-02-08T13:58:50Z</time>
      </trkpt>
      <trkpt lat="48.33223" lon="6.83518">
        <ele>346.9</ele>
        <time>2018-02-08T13:59:08Z</time>
      </trkpt>
      <trkpt lat="48.33228" lon="6.83543">
        <ele>346.98</ele>
        <time>2018-02-08T13:59:27Z</time>
      </trkpt>
      <trkpt lat="48.33242" lon="6.83575">
        <ele>348.1</ele>
        <time>2018-02-08T13:59:49Z</time>
      </trkpt>
      <trkpt lat="48.33251" lon="6.83597">
        <ele>349.32</ele>
        <time>2018-02-08T14:00:06Z</time>
      </trkpt>
      <trkpt lat="48.33263" lon="6.83628">
        <ele>349.64</ele>
        <time>2018-02-08T14:00:29Z</time>
      </trkpt>
      <trkpt lat="48.33272" lon="6.83654">
        <ele>352.03</ele>
        <time>2018-02-08T14:00:48Z</time>
      </trkpt>
      <trkpt lat="48.33286" lon="6.83681">
        <ele>353.63</ele>
        <time>2018-02-08T14:01:10Z</time>
      </trkpt>
      <trkpt lat="48.33287" lon="6.83689">
        <ele>355.18</ele>
        <time>2018-02-08T14:01:15Z</time>
      </trkpt>
      <trkpt lat="48.33289" lon="6.83692">
        <ele>354.47</ele>
        <time>2018-02-08T14:01:17Z</time>
      </trkpt>
      <trkpt lat="48.33292" lon="6.83707">
        <ele>356.59</ele>
        <time>2018-02-08T14:01:27Z</time>
      </trkpt>
      <trkpt lat="48.333" lon="6.83724">
        <ele>357.63</ele>
        <time>2018-02-08T14:01:39Z</time>
      </trkpt>
      <trkpt lat="48.33303" lon="6.83735">
        <ele>359.75</ele>
        <time>2018-02-08T14:01:48Z</time>
      </trkpt>
      <trkpt lat="48.3331" lon="6.83749">
        <ele>360.88</ele>
        <time>2018-02-08T14:01:59Z</time>
      </trkpt>
      <trkpt lat="48.33316" lon="6.83769">
        <ele>361.24</ele>
        <time>2018-02-08T14:02:13Z</time>
      </trkpt>
      <trkpt lat="48.3332" lon="6.83779">
        <ele>362.85</ele>
        <time>2018-02-08T14:02:20Z</time>
      </trkpt>
      <trkpt lat="48.33322" lon="6.83782">
        <ele>362.21</ele>
        <time>2018-02-08T14:02:22Z</time>
      </trkpt>
      <trkpt lat="48.3333" lon="6.83804">
        <ele>364.64</ele>
        <time>2018-02-08T14:02:37Z</time>
      </trkpt>
      <trkpt lat="48.33336" lon="6.83817">
        <ele>363.05</ele>
        <time>2018-02-08T14:02:46Z</time>
      </trkpt>
      <trkpt lat="48.33347" lon="6.83841">
        <ele>365.75</ele>
        <time>2018-02-08T14:03:03Z</time>
      </trkpt>
      <trkpt lat="48.33351" lon="6.8385">
        <ele>367.09</ele>
        <time>2018-02-08T14:03:10Z</time>
      </trkpt>
      <trkpt lat="48.33359" lon="6.83873">
        <ele>367.75</ele>
        <time>2018-02-08T14:03:25Z</time>
      </trkpt>
      <trkpt lat="48.33364" lon="6.83905">
        <ele>368.59</ele>
        <time>2018-02-08T14:03:44Z</time>
      </trkpt>
      <trkpt lat="48.33366" lon="6.83934">
        <ele>369.84</ele>
        <time>2018-02-08T14:04:02Z</time>
      </trkpt>
      <trkpt lat="48.33368" lon="6.83947">
        <ele>369.82</ele>
        <time>2018-02-08T14:04:10Z</time>
      </trkpt>
      <trkpt lat="48.33368" lon="6.8398">
        <ele>371.03</ele>
        <time>2018-02-08T14:04:29Z</time>
      </trkpt>
      <trkpt lat="48.33373" lon="6.8401">
        <ele>371.94</ele>
        <time>2018-02-08T14:04:46Z</time>
      </trkpt>
      <trkpt lat="48.33377" lon="6.84039">
        <ele>374.96</ele>
        <time>2018-02-08T14:05:02Z</time>
      </trkpt>
      <trkpt lat="48.33378" lon="6.84056">
        <ele>376.07</ele>
        <time>2018-02-08T14:05:12Z</time>
      </trkpt>
      <trkpt lat="48.33382" lon="6.84095">
        <ele>377.61</ele>
        <time>2018-02-08T14:05:34Z</time>
      </trkpt>
      <trkpt lat="48.33385" lon="6.84137">
        <ele>377.71</ele>
        <time>2018-02-08T14:05:56Z</time>
      </trkpt>
      <trkpt lat="48.33389" lon="6.84175">
        <ele>379.43</ele>
        <time>2018-02-08T14:06:17Z</time>
      </trkpt>
      <trkpt lat="48.33389" lon="6.84189">
        <ele>380.03</ele>
        <time>2018-02-08T14:06:28Z</time>
      </trkpt>
      <trkpt lat="48.33392" lon="6.84198">
        <ele>380.06</ele>
        <time>2018-02-08T14:06:43Z</time>
      </trkpt>
      <trkpt lat="48.33395" lon="6.84195">
        <ele>380.25</ele>
        <time>2018-02-08T14:07:11Z</time>
      </trkpt>
      <trkpt lat="48.33394" lon="6.84193">
        <ele>379.48</ele>
        <time>2018-02-08T14:07:34Z</time>
      </trkpt>
      <trkpt lat="48.33394" lon="6.84199">
        <ele>379.18</ele>
        <time>2018-02-08T14:07:48Z</time>
      </trkpt>
      <trkpt lat="48.33394" lon="6.84211">
        <ele>379.2</ele>
        <time>2018-02-08T14:07:56Z</time>
      </trkpt>
      <trkpt lat="48.33395" lon="6.84245">
        <ele>381.03</ele>
        <time>2018-02-08T14:08:18Z</time>
      </trkpt>
      <trkpt lat="48.33396" lon="6.84268">
        <ele>380.79</ele>
        <time>2018-02-08T14:08:32Z</time>
      </trkpt>
      <trkpt lat="48.33399" lon="6.84288">
        <ele>380.83</ele>
        <time>2018-02-08T14:08:45Z</time>
      </trkpt>
      <trkpt lat="48.33405" lon="6.84313">
        <ele>381.37</ele>
        <time>2018-02-08T14:09:02Z</time>
      </trkpt>
      <trkpt lat="48.33409" lon="6.84338">
        <ele>381.51</ele>
        <time>2018-02-08T14:09:16Z</time>
      </trkpt>
      <trkpt lat="48.33415" lon="6.84369">
        <ele>381.5</ele>
        <time>2018-02-08T14:09:34Z</time>
      </trkpt>
      <trkpt lat="48.33421" lon="6.84394">
        <ele>382.43</ele>
        <time>2018-02-08T14:09:50Z</time>
      </trkpt>
      <trkpt lat="48.33422" lon="6.84403">
        <ele>382.39</ele>
        <time>2018-02-08T14:09:56Z</time>
      </trkpt>
      <trkpt lat="48.33423" lon="6.84412">
        <ele>382.55</ele>
        <time>2018-02-08T14:10:03Z</time>
      </trkpt>
      <trkpt lat="48.33424" lon="6.84419">
        <ele>383.39</ele>
        <time>2018-02-08T14:10:08Z</time>
      </trkpt>
      <trkpt lat="48.33424" lon="6.84449">
        <ele>383.67</ele>
        <time>2018-02-08T14:10:26Z</time>
      </trkpt>
      <trkpt lat="48.33427" lon="6.84478">
        <ele>384.28</ele>
        <time>2018-02-08T14:10:43Z</time>
      </trkpt>
      <trkpt lat="48.33429" lon="6.84493">
        <ele>383.28</ele>
        <time>2018-02-08T14:10:52Z</time>
      </trkpt>
      <trkpt lat="48.3343" lon="6.84498">
        <ele>384.92</ele>
        <time>2018-02-08T14:10:55Z</time>
      </trkpt>
      <trkpt lat="48.33435" lon="6.84518">
        <ele>385.96</ele>
        <time>2018-02-08T14:11:09Z</time>
      </trkpt>
      <trkpt lat="48.33441" lon="6.84543">
        <ele>385.98</ele>
        <time>2018-02-08T14:11:25Z</time>
      </trkpt>
      <trkpt lat="48.33451" lon="6.84575">
        <ele>387.68</ele>
        <time>2018-02-08T14:11:45Z</time>
      </trkpt>
      <trkpt lat="48.33455" lon="6.84589">
        <ele>388.92</ele>
        <time>2018-02-08T14:11:55Z</time>
      </trkpt>
      <trkpt lat="48.33462" lon="6.84613">
        <ele>388.95</ele>
        <time>2018-02-08T14:12:12Z</time>
      </trkpt>
      <trkpt lat="48.33463" lon="6.84617">
        <ele>390.13</ele>
        <time>2018-02-08T14:12:17Z</time>
      </trkpt>
      <trkpt lat="48.33471" lon="6.84642">
        <ele>390.61</ele>
        <time>2018-02-08T14:12:36Z</time>
      </trkpt>
      <trkpt lat="48.33472" lon="6.84643">
        <ele>389.84</ele>
        <time>2018-02-08T14:12:37Z</time>
      </trkpt>
      <trkpt lat="48.33483" lon="6.84672">
        <ele>390.73</ele>
        <time>2018-02-08T14:12:57Z</time>
      </trkpt>
      <trkpt lat="48.33492" lon="6.84697">
        <ele>391.59</ele>
        <time>2018-02-08T14:13:14Z</time>
      </trkpt>
      <trkpt lat="48.33503" lon="6.84724">
        <ele>391.29</ele>
        <time>2018-02-08T14:13:33Z</time>
      </trkpt>
      <trkpt lat="48.33517" lon="6.84754">
        <ele>391.01</ele>
        <time>2018-02-08T14:13:54Z</time>
      </trkpt>
      <trkpt lat="48.33519" lon="6.84758">
        <ele>392.55</ele>
        <time>2018-02-08T14:13:57Z</time>
      </trkpt>
      <trkpt lat="48.33532" lon="6.84785">
        <ele>392.46</ele>
        <time>2018-02-08T14:14:15Z</time>
      </trkpt>
      <trkpt lat="48.33541" lon="6.84805">
        <ele>393.89</ele>
        <time>2018-02-08T14:14:30Z</time>
      </trkpt>
      <trkpt lat="48.33545" lon="6.8483">
        <ele>394.66</ele>
        <time>2018-02-08T14:14:47Z</time>
      </trkpt>
      <trkpt lat="48.33547" lon="6.84836">
        <ele>386.17</ele>
        <time>2018-02-08T14:15:01Z</time>
      </trkpt>
      <trkpt lat="48.33547" lon="6.84837">
        <ele>403.89</ele>
        <time>2018-02-08T14:15:02Z</time>
      </trkpt>
      <trkpt lat="48.33547" lon="6.84837">
        <ele>395.56</ele>
        <time>2018-02-08T14:15:03Z</time>
      </trkpt>
      <trkpt lat="48.33547" lon="6.84836">
        <ele>395.13</ele>
        <time>2018-02-08T14:15:26Z</time>
      </trkpt>
      <trkpt lat="48.33548" lon="6.84837">
        <ele>395.4</ele>
        <time>2018-02-08T14:15:55Z</time>
      </trkpt>
      <trkpt lat="48.33547" lon="6.84837">
        <ele>394.96</ele>
        <time>2018-02-08T14:16:30Z</time>
      </trkpt>
      <trkpt lat="48.33544" lon="6.84835">
        <ele>394.73</ele>
        <time>2018-02-08T14:17:02Z</time>
      </trkpt>
      <trkpt lat="48.33541" lon="6.84837">
        <ele>394.61</ele>
        <time>2018-02-08T14:17:29Z</time>
      </trkpt>
      <trkpt lat="48.33541" lon="6.84836">
        <ele>395.18</ele>
        <time>2018-02-08T14:17:53Z</time>
      </trkpt>
      <trkpt lat="48.3354" lon="6.84838">
        <ele>394.08</ele>
        <time>2018-02-08T14:18:17Z</time>
      </trkpt>
      <trkpt lat="48.3354" lon="6.84838">
        <ele>394.66</ele>
        <time>2018-02-08T14:18:37Z</time>
      </trkpt>
      <trkpt lat="48.3354" lon="6.84839">
        <ele>394.62</ele>
        <time>2018-02-08T14:19:06Z</time>
      </trkpt>
      <trkpt lat="48.33539" lon="6.84838">
        <ele>394.67</ele>
        <time>2018-02-08T14:19:27Z</time>
      </trkpt>
      <trkpt lat="48.33542" lon="6.84834">
        <ele>393.99</ele>
        <time>2018-02-08T14:19:49Z</time>
      </trkpt>
      <trkpt lat="48.33542" lon="6.84834">
        <ele>394.46</ele>
        <time>2018-02-08T14:20:18Z</time>
      </trkpt>
      <trkpt lat="48.33544" lon="6.84833">
        <ele>393.59</ele>
        <time>2018-02-08T14:20:39Z</time>
      </trkpt>
      <trkpt lat="48.33546" lon="6.84836">
        <ele>393.75</ele>
        <time>2018-02-08T14:20:58Z</time>
      </trkpt>
      <trkpt lat="48.33542" lon="6.84833">
        <ele>394.09</ele>
        <time>2018-02-08T14:21:13Z</time>
      </trkpt>
      <trkpt lat="48.33544" lon="6.8483">
        <ele>393.35</ele>
        <time>2018-02-08T14:21:34Z</time>
      </trkpt>
      <trkpt lat="48.33544" lon="6.84829">
        <ele>393</ele>
        <time>2018-02-08T14:22:03Z</time>
      </trkpt>
      <trkpt lat="48.33544" lon="6.84829">
        <ele>393</ele>
        <time>2018-02-08T14:22:31Z</time>
      </trkpt>
      <trkpt lat="48.33545" lon="6.84829">
        <ele>392.8</ele>
        <time>2018-02-08T14:22:57Z</time>
      </trkpt>
      <trkpt lat="48.33545" lon="6.84828">
        <ele>392.79</ele>
        <time>2018-02-08T14:23:24Z</time>
      </trkpt>
      <trkpt lat="48.33546" lon="6.84828">
        <ele>392.9</ele>
        <time>2018-02-08T14:23:52Z</time>
      </trkpt>
      <trkpt lat="48.33545" lon="6.84829">
        <ele>392.55</ele>
        <time>2018-02-08T14:24:17Z</time>
      </trkpt>
      <trkpt lat="48.33545" lon="6.84829">
        <ele>392.51</ele>
        <time>2018-02-08T14:24:45Z</time>
      </trkpt>
      <trkpt lat="48.33545" lon="6.84829">
        <ele>392.75</ele>
        <time>2018-02-08T14:25:11Z</time>
      </trkpt>
      <trkpt lat="48.33543" lon="6.84833">
        <ele>393.2</ele>
        <time>2018-02-08T14:25:31Z</time>
      </trkpt>
      <trkpt lat="48.33542" lon="6.84834">
        <ele>392.62</ele>
        <time>2018-02-08T14:25:56Z</time>
      </trkpt>
      <trkpt lat="48.33541" lon="6.84834">
        <ele>392.15</ele>
        <time>2018-02-08T14:26:19Z</time>
      </trkpt>
      <trkpt lat="48.33539" lon="6.84834">
        <ele>391.92</ele>
        <time>2018-02-08T14:26:45Z</time>
      </trkpt>
      <trkpt lat="48.33543" lon="6.84835">
        <ele>391.94</ele>
        <time>2018-02-08T14:27:06Z</time>
      </trkpt>
      <trkpt lat="48.33548" lon="6.84834">
        <ele>392.68</ele>
        <time>2018-02-08T14:27:34Z</time>
      </trkpt>
      <trkpt lat="48.3355" lon="6.84834">
        <ele>392.04</ele>
        <time>2018-02-08T14:27:38Z</time>
      </trkpt>
      <trkpt lat="48.33554" lon="6.84837">
        <ele>392.37</ele>
        <time>2018-02-08T14:27:42Z</time>
      </trkpt>
      <trkpt lat="48.33556" lon="6.8484">
        <ele>392.33</ele>
        <time>2018-02-08T14:27:45Z</time>
      </trkpt>
      <trkpt lat="48.3356" lon="6.84846">
        <ele>392.63</ele>
        <time>2018-02-08T14:27:50Z</time>
      </trkpt>
      <trkpt lat="48.33566" lon="6.84858">
        <ele>392.86</ele>
        <time>2018-02-08T14:27:59Z</time>
      </trkpt>
      <trkpt lat="48.33573" lon="6.84885">
        <ele>393.21</ele>
        <time>2018-02-08T14:28:15Z</time>
      </trkpt>
      <trkpt lat="48.33576" lon="6.84897">
        <ele>393.21</ele>
        <time>2018-02-08T14:28:22Z</time>
      </trkpt>
      <trkpt lat="48.33581" lon="6.84916">
        <ele>393.93</ele>
        <time>2018-02-08T14:28:35Z</time>
      </trkpt>
      <trkpt lat="48.33583" lon="6.84926">
        <ele>393.95</ele>
        <time>2018-02-08T14:28:41Z</time>
      </trkpt>
      <trkpt lat="48.33584" lon="6.8493">
        <ele>392.65</ele>
        <time>2018-02-08T14:28:44Z</time>
      </trkpt>
      <trkpt lat="48.33589" lon="6.84953">
        <ele>394.63</ele>
        <time>2018-02-08T14:28:58Z</time>
      </trkpt>
      <trkpt lat="48.33595" lon="6.84978">
        <ele>395.25</ele>
        <time>2018-02-08T14:29:14Z</time>
      </trkpt>
      <trkpt lat="48.336" lon="6.85006">
        <ele>395.65</ele>
        <time>2018-02-08T14:29:32Z</time>
      </trkpt>
      <trkpt lat="48.33604" lon="6.85026">
        <ele>395.26</ele>
        <time>2018-02-08T14:29:44Z</time>
      </trkpt>
      <trkpt lat="48.33608" lon="6.85039">
        <ele>396.08</ele>
        <time>2018-02-08T14:29:52Z</time>
      </trkpt>
      <trkpt lat="48.33616" lon="6.85064">
        <ele>396.14</ele>
        <time>2018-02-08T14:30:08Z</time>
      </trkpt>
      <trkpt lat="48.33622" lon="6.85085">
        <ele>397.26</ele>
        <time>2018-02-08T14:30:22Z</time>
      </trkpt>
      <trkpt lat="48.3363" lon="6.85111">
        <ele>396.97</ele>
        <time>2018-02-08T14:30:39Z</time>
      </trkpt>
      <trkpt lat="48.33638" lon="6.85132">
        <ele>397.61</ele>
        <time>2018-02-08T14:30:54Z</time>
      </trkpt>
      <trkpt lat="48.33645" lon="6.85153">
        <ele>396.84</ele>
        <time>2018-02-08T14:31:09Z</time>
      </trkpt>
      <trkpt lat="48.33654" lon="6.8518">
        <ele>397.65</ele>
        <time>2018-02-08T14:31:26Z</time>
      </trkpt>
      <trkpt lat="48.33661" lon="6.85204">
        <ele>398.17</ele>
        <time>2018-02-08T14:31:42Z</time>
      </trkpt>
      <trkpt lat="48.33662" lon="6.85207">
        <ele>396.93</ele>
        <time>2018-02-08T14:31:44Z</time>
      </trkpt>
      <trkpt lat="48.33663" lon="6.8521">
        <ele>398.25</ele>
        <time>2018-02-08T14:31:46Z</time>
      </trkpt>
      <trkpt lat="48.33669" lon="6.85226">
        <ele>399.04</ele>
        <time>2018-02-08T14:31:57Z</time>
      </trkpt>
      <trkpt lat="48.33676" lon="6.85246">
        <ele>398.48</ele>
        <time>2018-02-08T14:32:10Z</time>
      </trkpt>
      <trkpt lat="48.33685" lon="6.85272">
        <ele>398.82</ele>
        <time>2018-02-08T14:32:28Z</time>
      </trkpt>
      <trkpt lat="48.33695" lon="6.85297">
        <ele>399.28</ele>
        <time>2018-02-08T14:32:45Z</time>
      </trkpt>
      <trkpt lat="48.33704" lon="6.85324">
        <ele>399.97</ele>
        <time>2018-02-08T14:33:03Z</time>
      </trkpt>
      <trkpt lat="48.33712" lon="6.8535">
        <ele>399.22</ele>
        <time>2018-02-08T14:33:20Z</time>
      </trkpt>
      <trkpt lat="48.33713" lon="6.85355">
        <ele>400.82</ele>
        <time>2018-02-08T14:33:23Z</time>
      </trkpt>
      <trkpt lat="48.3372" lon="6.85375">
        <ele>400.95</ele>
        <time>2018-02-08T14:33:36Z</time>
      </trkpt>
      <trkpt lat="48.33729" lon="6.85408">
        <ele>399.75</ele>
        <time>2018-02-08T14:33:55Z</time>
      </trkpt>
      <trkpt lat="48.33734" lon="6.85433">
        <ele>400.15</ele>
        <time>2018-02-08T14:34:10Z</time>
      </trkpt>
      <trkpt lat="48.33736" lon="6.85444">
        <ele>399.72</ele>
        <time>2018-02-08T14:34:16Z</time>
      </trkpt>
      <trkpt lat="48.3374" lon="6.85475">
        <ele>398.68</ele>
        <time>2018-02-08T14:34:33Z</time>
      </trkpt>
      <trkpt lat="48.33744" lon="6.8551">
        <ele>398.06</ele>
        <time>2018-02-08T14:34:52Z</time>
      </trkpt>
      <trkpt lat="48.33746" lon="6.85542">
        <ele>396.64</ele>
        <time>2018-02-08T14:35:12Z</time>
      </trkpt>
      <trkpt lat="48.33744" lon="6.85553">
        <ele>396.75</ele>
        <time>2018-02-08T14:35:30Z</time>
      </trkpt>
      <trkpt lat="48.33739" lon="6.85561">
        <ele>395.9</ele>
        <time>2018-02-08T14:35:54Z</time>
      </trkpt>
      <trkpt lat="48.33737" lon="6.8556">
        <ele>395.94</ele>
        <time>2018-02-08T14:35:55Z</time>
      </trkpt>
      <trkpt lat="48.33728" lon="6.85555">
        <ele>397.14</ele>
        <time>2018-02-08T14:36:02Z</time>
      </trkpt>
      <trkpt lat="48.33723" lon="6.85553">
        <ele>396.49</ele>
        <time>2018-02-08T14:36:19Z</time>
      </trkpt>
      <trkpt lat="48.33724" lon="6.8555">
        <ele>396.27</ele>
        <time>2018-02-08T14:36:48Z</time>
      </trkpt>
      <trkpt lat="48.33724" lon="6.85553">
        <ele>395.81</ele>
        <time>2018-02-08T14:37:17Z</time>
      </trkpt>
      <trkpt lat="48.33727" lon="6.85553">
        <ele>396.17</ele>
        <time>2018-02-08T14:37:45Z</time>
      </trkpt>
      <trkpt lat="48.33728" lon="6.85576">
        <ele>395.34</ele>
        <time>2018-02-08T14:38:05Z</time>
      </trkpt>
      <trkpt lat="48.33727" lon="6.85583">
        <ele>393.88</ele>
        <time>2018-02-08T14:38:09Z</time>
      </trkpt>
      <trkpt lat="48.33727" lon="6.85592">
        <ele>393.3</ele>
        <time>2018-02-08T14:38:14Z</time>
      </trkpt>
      <trkpt lat="48.33723" lon="6.85627">
        <ele>393.07</ele>
        <time>2018-02-08T14:38:30Z</time>
      </trkpt>
      <trkpt lat="48.33718" lon="6.85657">
        <ele>391.96</ele>
        <time>2018-02-08T14:38:45Z</time>
      </trkpt>
      <trkpt lat="48.33709" lon="6.85688">
        <ele>388.91</ele>
        <time>2018-02-08T14:39:02Z</time>
      </trkpt>
      <trkpt lat="48.337" lon="6.85713">
        <ele>387.7</ele>
        <time>2018-02-08T14:39:18Z</time>
      </trkpt>
      <trkpt lat="48.33693" lon="6.85729">
        <ele>385.48</ele>
        <time>2018-02-08T14:39:34Z</time>
      </trkpt>
      <trkpt lat="48.33683" lon="6.85745">
        <ele>383.74</ele>
        <time>2018-02-08T14:39:54Z</time>
      </trkpt>
      <trkpt lat="48.33679" lon="6.85765">
        <ele>382.65</ele>
        <time>2018-02-08T14:40:13Z</time>
      </trkpt>
      <trkpt lat="48.33678" lon="6.85787">
        <ele>380.86</ele>
        <time>2018-02-08T14:40:32Z</time>
      </trkpt>
      <trkpt lat="48.33676" lon="6.85813">
        <ele>380.29</ele>
        <time>2018-02-08T14:40:52Z</time>
      </trkpt>
      <trkpt lat="48.33675" lon="6.85829">
        <ele>379.14</ele>
        <time>2018-02-08T14:41:04Z</time>
      </trkpt>
      <trkpt lat="48.33674" lon="6.85853">
        <ele>378.47</ele>
        <time>2018-02-08T14:41:22Z</time>
      </trkpt>
      <trkpt lat="48.33672" lon="6.85867">
        <ele>377.41</ele>
        <time>2018-02-08T14:41:39Z</time>
      </trkpt>
      <trkpt lat="48.33673" lon="6.85873">
        <ele>377.61</ele>
        <time>2018-02-08T14:41:49Z</time>
      </trkpt>
      <trkpt lat="48.33678" lon="6.85899">
        <ele>376.7</ele>
        <time>2018-02-08T14:42:08Z</time>
      </trkpt>
      <trkpt lat="48.33676" lon="6.85901">
        <ele>377.62</ele>
        <time>2018-02-08T14:42:13Z</time>
      </trkpt>
      <trkpt lat="48.33673" lon="6.85907">
        <ele>378.28</ele>
        <time>2018-02-08T14:42:23Z</time>
      </trkpt>
      <trkpt lat="48.33668" lon="6.85914">
        <ele>377.57</ele>
        <time>2018-02-08T14:42:30Z</time>
      </trkpt>
      <trkpt lat="48.33662" lon="6.85927">
        <ele>378.16</ele>
        <time>2018-02-08T14:42:48Z</time>
      </trkpt>
      <trkpt lat="48.33659" lon="6.85929">
        <ele>377.91</ele>
        <time>2018-02-08T14:43:03Z</time>
      </trkpt>
      <trkpt lat="48.33655" lon="6.85932">
        <ele>378.06</ele>
        <time>2018-02-08T14:43:07Z</time>
      </trkpt>
      <trkpt lat="48.33638" lon="6.85949">
        <ele>378.17</ele>
        <time>2018-02-08T14:43:27Z</time>
      </trkpt>
      <trkpt lat="48.33622" lon="6.85962">
        <ele>378.25</ele>
        <time>2018-02-08T14:43:44Z</time>
      </trkpt>
      <trkpt lat="48.33605" lon="6.85975">
        <ele>376.61</ele>
        <time>2018-02-08T14:44:01Z</time>
      </trkpt>
      <trkpt lat="48.33583" lon="6.85991">
        <ele>376.3</ele>
        <time>2018-02-08T14:44:21Z</time>
      </trkpt>
      <trkpt lat="48.33571" lon="6.85999">
        <ele>375.78</ele>
        <time>2018-02-08T14:44:31Z</time>
      </trkpt>
      <trkpt lat="48.33566" lon="6.86">
        <ele>374.79</ele>
        <time>2018-02-08T14:44:35Z</time>
      </trkpt>
      <trkpt lat="48.33543" lon="6.86014">
        <ele>373.7</ele>
        <time>2018-02-08T14:44:56Z</time>
      </trkpt>
      <trkpt lat="48.33519" lon="6.86026">
        <ele>372.61</ele>
        <time>2018-02-08T14:45:17Z</time>
      </trkpt>
      <trkpt lat="48.33491" lon="6.86038">
        <ele>371.52</ele>
        <time>2018-02-08T14:45:40Z</time>
      </trkpt>
      <trkpt lat="48.33474" lon="6.86063">
        <ele>370.47</ele>
        <time>2018-02-08T14:46:00Z</time>
      </trkpt>
      <trkpt lat="48.33469" lon="6.8609">
        <ele>368.44</ele>
        <time>2018-02-08T14:46:17Z</time>
      </trkpt>
      <trkpt lat="48.33466" lon="6.8611">
        <ele>368.1</ele>
        <time>2018-02-08T14:46:31Z</time>
      </trkpt>
      <trkpt lat="48.33468" lon="6.86147">
        <ele>366.73</ele>
        <time>2018-02-08T14:46:52Z</time>
      </trkpt>
      <trkpt lat="48.3347" lon="6.86177">
        <ele>366.25</ele>
        <time>2018-02-08T14:47:09Z</time>
      </trkpt>
      <trkpt lat="48.33469" lon="6.8621">
        <ele>365.46</ele>
        <time>2018-02-08T14:47:27Z</time>
      </trkpt>
      <trkpt lat="48.33466" lon="6.8624">
        <ele>364.8</ele>
        <time>2018-02-08T14:47:43Z</time>
      </trkpt>
      <trkpt lat="48.33461" lon="6.86269">
        <ele>363.4</ele>
        <time>2018-02-08T14:48:00Z</time>
      </trkpt>
      <trkpt lat="48.33456" lon="6.86295">
        <ele>363</ele>
        <time>2018-02-08T14:48:15Z</time>
      </trkpt>
      <trkpt lat="48.33455" lon="6.86299">
        <ele>362.49</ele>
        <time>2018-02-08T14:48:18Z</time>
      </trkpt>
      <trkpt lat="48.33447" lon="6.86328">
        <ele>362.09</ele>
        <time>2018-02-08T14:48:35Z</time>
      </trkpt>
      <trkpt lat="48.3344" lon="6.86356">
        <ele>360.8</ele>
        <time>2018-02-08T14:48:51Z</time>
      </trkpt>
      <trkpt lat="48.33431" lon="6.86385">
        <ele>360.04</ele>
        <time>2018-02-08T14:49:09Z</time>
      </trkpt>
      <trkpt lat="48.33427" lon="6.86394">
        <ele>359.36</ele>
        <time>2018-02-08T14:49:15Z</time>
      </trkpt>
      <trkpt lat="48.33425" lon="6.86401">
        <ele>359.81</ele>
        <time>2018-02-08T14:49:19Z</time>
      </trkpt>
      <trkpt lat="48.33418" lon="6.8643">
        <ele>358.68</ele>
        <time>2018-02-08T14:49:36Z</time>
      </trkpt>
      <trkpt lat="48.33417" lon="6.86459">
        <ele>356.81</ele>
        <time>2018-02-08T14:49:51Z</time>
      </trkpt>
      <trkpt lat="48.33419" lon="6.86487">
        <ele>355.24</ele>
        <time>2018-02-08T14:50:07Z</time>
      </trkpt>
      <trkpt lat="48.33419" lon="6.86516">
        <ele>354.57</ele>
        <time>2018-02-08T14:50:23Z</time>
      </trkpt>
      <trkpt lat="48.33414" lon="6.86548">
        <ele>354.21</ele>
        <time>2018-02-08T14:50:40Z</time>
      </trkpt>
      <trkpt lat="48.33404" lon="6.86574">
        <ele>353.82</ele>
        <time>2018-02-08T14:50:59Z</time>
      </trkpt>
      <trkpt lat="48.33396" lon="6.86582">
        <ele>354.35</ele>
        <time>2018-02-08T14:51:15Z</time>
      </trkpt>
      <trkpt lat="48.33389" lon="6.86595">
        <ele>353.93</ele>
        <time>2018-02-08T14:51:40Z</time>
      </trkpt>
      <trkpt lat="48.33388" lon="6.86596">
        <ele>353.67</ele>
        <time>2018-02-08T14:52:05Z</time>
      </trkpt>
      <trkpt lat="48.3338" lon="6.86615">
        <ele>354.69</ele>
        <time>2018-02-08T14:52:28Z</time>
      </trkpt>
      <trkpt lat="48.33377" lon="6.86644">
        <ele>354.57</ele>
        <time>2018-02-08T14:52:55Z</time>
      </trkpt>
      <trkpt lat="48.33382" lon="6.86675">
        <ele>354.02</ele>
        <time>2018-02-08T14:53:19Z</time>
      </trkpt>
      <trkpt lat="48.33385" lon="6.86683">
        <ele>356.43</ele>
        <time>2018-02-08T14:53:24Z</time>
      </trkpt>
      <trkpt lat="48.33389" lon="6.86697">
        <ele>355.65</ele>
        <time>2018-02-08T14:53:33Z</time>
      </trkpt>
      <trkpt lat="48.33395" lon="6.86729">
        <ele>356.5</ele>
        <time>2018-02-08T14:53:55Z</time>
      </trkpt>
      <trkpt lat="48.334" lon="6.86744">
        <ele>358.36</ele>
        <time>2018-02-08T14:54:06Z</time>
      </trkpt>
      <trkpt lat="48.334" lon="6.86746">
        <ele>357.69</ele>
        <time>2018-02-08T14:54:08Z</time>
      </trkpt>
      <trkpt lat="48.33401" lon="6.86757">
        <ele>358.4</ele>
        <time>2018-02-08T14:54:15Z</time>
      </trkpt>
      <trkpt lat="48.33405" lon="6.8678">
        <ele>360.32</ele>
        <time>2018-02-08T14:54:30Z</time>
      </trkpt>
      <trkpt lat="48.33401" lon="6.86811">
        <ele>361.62</ele>
        <time>2018-02-08T14:54:50Z</time>
      </trkpt>
      <trkpt lat="48.33398" lon="6.86841">
        <ele>362.31</ele>
        <time>2018-02-08T14:55:07Z</time>
      </trkpt>
      <trkpt lat="48.33391" lon="6.86864">
        <ele>362.11</ele>
        <time>2018-02-08T14:55:23Z</time>
      </trkpt>
      <trkpt lat="48.33386" lon="6.86871">
        <ele>362.92</ele>
        <time>2018-02-08T14:55:30Z</time>
      </trkpt>
      <trkpt lat="48.33373" lon="6.8688">
        <ele>362.68</ele>
        <time>2018-02-08T14:55:45Z</time>
      </trkpt>
      <trkpt lat="48.33356" lon="6.86881">
        <ele>362.92</ele>
        <time>2018-02-08T14:56:01Z</time>
      </trkpt>
      <trkpt lat="48.33334" lon="6.86885">
        <ele>362.9</ele>
        <time>2018-02-08T14:56:20Z</time>
      </trkpt>
      <trkpt lat="48.33313" lon="6.86891">
        <ele>363.53</ele>
        <time>2018-02-08T14:56:37Z</time>
      </trkpt>
      <trkpt lat="48.33299" lon="6.869">
        <ele>362.95</ele>
        <time>2018-02-08T14:56:50Z</time>
      </trkpt>
      <trkpt lat="48.3328" lon="6.8691">
        <ele>363.77</ele>
        <time>2018-02-08T14:57:10Z</time>
      </trkpt>
      <trkpt lat="48.33255" lon="6.86918">
        <ele>364.53</ele>
        <time>2018-02-08T14:57:30Z</time>
      </trkpt>
      <trkpt lat="48.3325" lon="6.86926">
        <ele>364.26</ele>
        <time>2018-02-08T14:57:51Z</time>
      </trkpt>
      <trkpt lat="48.33247" lon="6.86925">
        <ele>364.2</ele>
        <time>2018-02-08T14:58:11Z</time>
      </trkpt>
      <trkpt lat="48.33251" lon="6.8692">
        <ele>364.05</ele>
        <time>2018-02-08T14:58:34Z</time>
      </trkpt>
      <trkpt lat="48.33258" lon="6.86915">
        <ele>363.3</ele>
        <time>2018-02-08T14:58:59Z</time>
      </trkpt>
      <trkpt lat="48.33251" lon="6.86923">
        <ele>363.8</ele>
        <time>2018-02-08T14:59:15Z</time>
      </trkpt>
      <trkpt lat="48.33252" lon="6.86921">
        <ele>362.94</ele>
        <time>2018-02-08T14:59:43Z</time>
      </trkpt>
      <trkpt lat="48.3325" lon="6.86921">
        <ele>362.93</ele>
        <time>2018-02-08T15:00:11Z</time>
      </trkpt>
      <trkpt lat="48.33248" lon="6.86926">
        <ele>362.86</ele>
        <time>2018-02-08T15:00:34Z</time>
      </trkpt>
      <trkpt lat="48.33246" lon="6.86932">
        <ele>363.51</ele>
        <time>2018-02-08T15:00:52Z</time>
      </trkpt>
      <trkpt lat="48.33246" lon="6.86929">
        <ele>360.18</ele>
        <time>2018-02-08T15:00:58Z</time>
      </trkpt>
      <trkpt lat="48.33247" lon="6.86928">
        <ele>363.5</ele>
        <time>2018-02-08T15:01:00Z</time>
      </trkpt>
      <trkpt lat="48.33254" lon="6.8692">
        <ele>363.74</ele>
        <time>2018-02-08T15:01:25Z</time>
      </trkpt>
      <trkpt lat="48.3326" lon="6.86921">
        <ele>362.59</ele>
        <time>2018-02-08T15:01:51Z</time>
      </trkpt>
      <trkpt lat="48.33265" lon="6.86918">
        <ele>362.48</ele>
        <time>2018-02-08T15:02:09Z</time>
      </trkpt>
      <trkpt lat="48.33262" lon="6.86916">
        <ele>361.74</ele>
        <time>2018-02-08T15:02:34Z</time>
      </trkpt>
      <trkpt lat="48.33253" lon="6.8691">
        <ele>363.24</ele>
        <time>2018-02-08T15:02:47Z</time>
      </trkpt>
      <trkpt lat="48.33249" lon="6.86889">
        <ele>362.75</ele>
        <time>2018-02-08T15:03:06Z</time>
      </trkpt>
      <trkpt lat="48.33249" lon="6.86866">
        <ele>363.18</ele>
        <time>2018-02-08T15:03:26Z</time>
      </trkpt>
      <trkpt lat="48.33247" lon="6.86834">
        <ele>363.84</ele>
        <time>2018-02-08T15:03:45Z</time>
      </trkpt>
      <trkpt lat="48.33242" lon="6.86812">
        <ele>364.29</ele>
        <time>2018-02-08T15:04:00Z</time>
      </trkpt>
      <trkpt lat="48.33232" lon="6.86772">
        <ele>364.6</ele>
        <time>2018-02-08T15:04:17Z</time>
      </trkpt>
      <trkpt lat="48.3323" lon="6.86759">
        <ele>364.95</ele>
        <time>2018-02-08T15:04:32Z</time>
      </trkpt>
      <trkpt lat="48.33225" lon="6.86744">
        <ele>364.56</ele>
        <time>2018-02-08T15:04:41Z</time>
      </trkpt>
      <trkpt lat="48.33221" lon="6.86731">
        <ele>365.41</ele>
        <time>2018-02-08T15:04:54Z</time>
      </trkpt>
      <trkpt lat="48.3322" lon="6.86728">
        <ele>365.66</ele>
        <time>2018-02-08T15:04:58Z</time>
      </trkpt>
      <trkpt lat="48.3322" lon="6.86725">
        <ele>365.24</ele>
        <time>2018-02-08T15:05:00Z</time>
      </trkpt>
      <trkpt lat="48.33214" lon="6.86701">
        <ele>365.8</ele>
        <time>2018-02-08T15:05:12Z</time>
      </trkpt>
      <trkpt lat="48.33211" lon="6.86695">
        <ele>366.18</ele>
        <time>2018-02-08T15:05:17Z</time>
      </trkpt>
      <trkpt lat="48.33209" lon="6.86684">
        <ele>366.37</ele>
        <time>2018-02-08T15:05:22Z</time>
      </trkpt>
      <trkpt lat="48.33207" lon="6.86674">
        <ele>366.13</ele>
        <time>2018-02-08T15:05:27Z</time>
      </trkpt>
      <trkpt lat="48.332" lon="6.86652">
        <ele>366.83</ele>
        <time>2018-02-08T15:05:40Z</time>
      </trkpt>
      <trkpt lat="48.33199" lon="6.86644">
        <ele>367.44</ele>
        <time>2018-02-08T15:05:47Z</time>
      </trkpt>
      <trkpt lat="48.33195" lon="6.86636">
        <ele>367.83</ele>
        <time>2018-02-08T15:05:51Z</time>
      </trkpt>
      <trkpt lat="48.33188" lon="6.86619">
        <ele>367.33</ele>
        <time>2018-02-08T15:06:06Z</time>
      </trkpt>
      <trkpt lat="48.33179" lon="6.86596">
        <ele>369.73</ele>
        <time>2018-02-08T15:06:23Z</time>
      </trkpt>
      <trkpt lat="48.33177" lon="6.86585">
        <ele>370.04</ele>
        <time>2018-02-08T15:06:39Z</time>
      </trkpt>
      <trkpt lat="48.33175" lon="6.86582">
        <ele>369.44</ele>
        <time>2018-02-08T15:06:41Z</time>
      </trkpt>
      <trkpt lat="48.33165" lon="6.86564">
        <ele>370.65</ele>
        <time>2018-02-08T15:06:57Z</time>
      </trkpt>
      <trkpt lat="48.33156" lon="6.86541">
        <ele>371.84</ele>
        <time>2018-02-08T15:07:13Z</time>
      </trkpt>
      <trkpt lat="48.33153" lon="6.86534">
        <ele>370.81</ele>
        <time>2018-02-08T15:07:27Z</time>
      </trkpt>
      <trkpt lat="48.33152" lon="6.86533">
        <ele>371.57</ele>
        <time>2018-02-08T15:07:28Z</time>
      </trkpt>
      <trkpt lat="48.33151" lon="6.86529">
        <ele>371.8</ele>
        <time>2018-02-08T15:07:31Z</time>
      </trkpt>
      <trkpt lat="48.33141" lon="6.86509">
        <ele>371.46</ele>
        <time>2018-02-08T15:07:45Z</time>
      </trkpt>
      <trkpt lat="48.33139" lon="6.86505">
        <ele>372.69</ele>
        <time>2018-02-08T15:07:48Z</time>
      </trkpt>
      <trkpt lat="48.33134" lon="6.86493">
        <ele>372.77</ele>
        <time>2018-02-08T15:07:56Z</time>
      </trkpt>
      <trkpt lat="48.33132" lon="6.86491">
        <ele>374.08</ele>
        <time>2018-02-08T15:07:58Z</time>
      </trkpt>
      <trkpt lat="48.33125" lon="6.8647">
        <ele>373.55</ele>
        <time>2018-02-08T15:08:12Z</time>
      </trkpt>
      <trkpt lat="48.33118" lon="6.86456">
        <ele>374.59</ele>
        <time>2018-02-08T15:08:23Z</time>
      </trkpt>
      <trkpt lat="48.3311" lon="6.86433">
        <ele>375.27</ele>
        <time>2018-02-08T15:08:38Z</time>
      </trkpt>
      <trkpt lat="48.33108" lon="6.86427">
        <ele>375.02</ele>
        <time>2018-02-08T15:08:42Z</time>
      </trkpt>
      <trkpt lat="48.33103" lon="6.86417">
        <ele>376.34</ele>
        <time>2018-02-08T15:08:49Z</time>
      </trkpt>
      <trkpt lat="48.33095" lon="6.86393">
        <ele>376.24</ele>
        <time>2018-02-08T15:09:05Z</time>
      </trkpt>
      <trkpt lat="48.33094" lon="6.86392">
        <ele>377.27</ele>
        <time>2018-02-08T15:09:06Z</time>
      </trkpt>
      <trkpt lat="48.33086" lon="6.86372">
        <ele>377.66</ele>
        <time>2018-02-08T15:09:21Z</time>
      </trkpt>
      <trkpt lat="48.33085" lon="6.86371">
        <ele>378.24</ele>
        <time>2018-02-08T15:09:22Z</time>
      </trkpt>
      <trkpt lat="48.33076" lon="6.86347">
        <ele>378.94</ele>
        <time>2018-02-08T15:09:38Z</time>
      </trkpt>
      <trkpt lat="48.33068" lon="6.86326">
        <ele>378.49</ele>
        <time>2018-02-08T15:09:52Z</time>
      </trkpt>
      <trkpt lat="48.33058" lon="6.86303">
        <ele>379.28</ele>
        <time>2018-02-08T15:10:08Z</time>
      </trkpt>
      <trkpt lat="48.3305" lon="6.86285">
        <ele>379.84</ele>
        <time>2018-02-08T15:10:21Z</time>
      </trkpt>
      <trkpt lat="48.33042" lon="6.86263">
        <ele>380.03</ele>
        <time>2018-02-08T15:10:36Z</time>
      </trkpt>
      <trkpt lat="48.33035" lon="6.86247">
        <ele>381.19</ele>
        <time>2018-02-08T15:10:46Z</time>
      </trkpt>
      <trkpt lat="48.33024" lon="6.8622">
        <ele>381.69</ele>
        <time>2018-02-08T15:11:03Z</time>
      </trkpt>
      <trkpt lat="48.33019" lon="6.86207">
        <ele>381.71</ele>
        <time>2018-02-08T15:11:11Z</time>
      </trkpt>
      <trkpt lat="48.33013" lon="6.86193">
        <ele>381.77</ele>
        <time>2018-02-08T15:11:20Z</time>
      </trkpt>
      <trkpt lat="48.33007" lon="6.86173">
        <ele>381.55</ele>
        <time>2018-02-08T15:11:32Z</time>
      </trkpt>
      <trkpt lat="48.32998" lon="6.86146">
        <ele>381.97</ele>
        <time>2018-02-08T15:11:48Z</time>
      </trkpt>
      <trkpt lat="48.32988" lon="6.86122">
        <ele>381.68</ele>
        <time>2018-02-08T15:12:06Z</time>
      </trkpt>
      <trkpt lat="48.32981" lon="6.86098">
        <ele>381.91</ele>
        <time>2018-02-08T15:12:21Z</time>
      </trkpt>
      <trkpt lat="48.32977" lon="6.86081">
        <ele>381.54</ele>
        <time>2018-02-08T15:12:33Z</time>
      </trkpt>
      <trkpt lat="48.32977" lon="6.86079">
        <ele>381.55</ele>
        <time>2018-02-08T15:12:34Z</time>
      </trkpt>
      <trkpt lat="48.32971" lon="6.86052">
        <ele>382.37</ele>
        <time>2018-02-08T15:12:48Z</time>
      </trkpt>
      <trkpt lat="48.32968" lon="6.86041">
        <ele>382.24</ele>
        <time>2018-02-08T15:12:55Z</time>
      </trkpt>
      <trkpt lat="48.32962" lon="6.86021">
        <ele>383.04</ele>
        <time>2018-02-08T15:13:07Z</time>
      </trkpt>
      <trkpt lat="48.32957" lon="6.86005">
        <ele>382.91</ele>
        <time>2018-02-08T15:13:18Z</time>
      </trkpt>
      <trkpt lat="48.32956" lon="6.86003">
        <ele>383.37</ele>
        <time>2018-02-08T15:13:19Z</time>
      </trkpt>
      <trkpt lat="48.3295" lon="6.8598">
        <ele>383.82</ele>
        <time>2018-02-08T15:13:33Z</time>
      </trkpt>
      <trkpt lat="48.32944" lon="6.85962">
        <ele>384.28</ele>
        <time>2018-02-08T15:13:45Z</time>
      </trkpt>
      <trkpt lat="48.32942" lon="6.85957">
        <ele>384.51</ele>
        <time>2018-02-08T15:13:50Z</time>
      </trkpt>
      <trkpt lat="48.3294" lon="6.85949">
        <ele>384.41</ele>
        <time>2018-02-08T15:13:54Z</time>
      </trkpt>
      <trkpt lat="48.32934" lon="6.85928">
        <ele>385.09</ele>
        <time>2018-02-08T15:14:07Z</time>
      </trkpt>
      <trkpt lat="48.32929" lon="6.85914">
        <ele>384.89</ele>
        <time>2018-02-08T15:14:16Z</time>
      </trkpt>
      <trkpt lat="48.3292" lon="6.85887">
        <ele>385.93</ele>
        <time>2018-02-08T15:14:31Z</time>
      </trkpt>
      <trkpt lat="48.32914" lon="6.85862">
        <ele>387.08</ele>
        <time>2018-02-08T15:14:45Z</time>
      </trkpt>
      <trkpt lat="48.32908" lon="6.85833">
        <ele>387.01</ele>
        <time>2018-02-08T15:15:01Z</time>
      </trkpt>
      <trkpt lat="48.32905" lon="6.85825">
        <ele>387.42</ele>
        <time>2018-02-08T15:15:05Z</time>
      </trkpt>
      <trkpt lat="48.32899" lon="6.85805">
        <ele>388.15</ele>
        <time>2018-02-08T15:15:20Z</time>
      </trkpt>
      <trkpt lat="48.32898" lon="6.85803">
        <ele>388.39</ele>
        <time>2018-02-08T15:15:22Z</time>
      </trkpt>
      <trkpt lat="48.32892" lon="6.85799">
        <ele>387.86</ele>
        <time>2018-02-08T15:15:40Z</time>
      </trkpt>
      <trkpt lat="48.32886" lon="6.85776">
        <ele>389.35</ele>
        <time>2018-02-08T15:15:56Z</time>
      </trkpt>
      <trkpt lat="48.32884" lon="6.85765">
        <ele>389.09</ele>
        <time>2018-02-08T15:16:01Z</time>
      </trkpt>
      <trkpt lat="48.32879" lon="6.85745">
        <ele>389.73</ele>
        <time>2018-02-08T15:16:11Z</time>
      </trkpt>
      <trkpt lat="48.32873" lon="6.85722">
        <ele>389.82</ele>
        <time>2018-02-08T15:16:27Z</time>
      </trkpt>
      <trkpt lat="48.32865" lon="6.85696">
        <ele>390.29</ele>
        <time>2018-02-08T15:16:42Z</time>
      </trkpt>
      <trkpt lat="48.32856" lon="6.85665">
        <ele>390.01</ele>
        <time>2018-02-08T15:16:59Z</time>
      </trkpt>
      <trkpt lat="48.32856" lon="6.85662">
        <ele>389.84</ele>
        <time>2018-02-08T15:17:01Z</time>
      </trkpt>
      <trkpt lat="48.32854" lon="6.85655">
        <ele>390.36</ele>
        <time>2018-02-08T15:17:06Z</time>
      </trkpt>
      <trkpt lat="48.32853" lon="6.85649">
        <ele>390.14</ele>
        <time>2018-02-08T15:17:09Z</time>
      </trkpt>
      <trkpt lat="48.32847" lon="6.85622">
        <ele>390.29</ele>
        <time>2018-02-08T15:17:23Z</time>
      </trkpt>
      <trkpt lat="48.32843" lon="6.85612">
        <ele>389.69</ele>
        <time>2018-02-08T15:17:31Z</time>
      </trkpt>
      <trkpt lat="48.32841" lon="6.85604">
        <ele>390.3</ele>
        <time>2018-02-08T15:17:36Z</time>
      </trkpt>
      <trkpt lat="48.32838" lon="6.85595">
        <ele>390.07</ele>
        <time>2018-02-08T15:17:41Z</time>
      </trkpt>
      <trkpt lat="48.32834" lon="6.85582">
        <ele>389.11</ele>
        <time>2018-02-08T15:17:48Z</time>
      </trkpt>
      <trkpt lat="48.32829" lon="6.85557">
        <ele>389.3</ele>
        <time>2018-02-08T15:18:02Z</time>
      </trkpt>
      <trkpt lat="48.32827" lon="6.85553">
        <ele>388.96</ele>
        <time>2018-02-08T15:18:05Z</time>
      </trkpt>
      <trkpt lat="48.32825" lon="6.85544">
        <ele>388.86</ele>
        <time>2018-02-08T15:18:11Z</time>
      </trkpt>
      <trkpt lat="48.32823" lon="6.85537">
        <ele>388.94</ele>
        <time>2018-02-08T15:18:15Z</time>
      </trkpt>
      <trkpt lat="48.32821" lon="6.85527">
        <ele>388.78</ele>
        <time>2018-02-08T15:18:21Z</time>
      </trkpt>
      <trkpt lat="48.32819" lon="6.85519">
        <ele>388.39</ele>
        <time>2018-02-08T15:18:26Z</time>
      </trkpt>
      <trkpt lat="48.32817" lon="6.85512">
        <ele>387.63</ele>
        <time>2018-02-08T15:18:30Z</time>
      </trkpt>
      <trkpt lat="48.32815" lon="6.85503">
        <ele>387.82</ele>
        <time>2018-02-08T15:18:35Z</time>
      </trkpt>
      <trkpt lat="48.32811" lon="6.85487">
        <ele>386.77</ele>
        <time>2018-02-08T15:18:47Z</time>
      </trkpt>
      <trkpt lat="48.3281" lon="6.85482">
        <ele>387.19</ele>
        <time>2018-02-08T15:18:51Z</time>
      </trkpt>
      <trkpt lat="48.32806" lon="6.8547">
        <ele>387.1</ele>
        <time>2018-02-08T15:18:56Z</time>
      </trkpt>
      <trkpt lat="48.32804" lon="6.85463">
        <ele>387.34</ele>
        <time>2018-02-08T15:19:01Z</time>
      </trkpt>
      <trkpt lat="48.32801" lon="6.85453">
        <ele>385.95</ele>
        <time>2018-02-08T15:19:07Z</time>
      </trkpt>
      <trkpt lat="48.32797" lon="6.85437">
        <ele>386.77</ele>
        <time>2018-02-08T15:19:17Z</time>
      </trkpt>
      <trkpt lat="48.32791" lon="6.85423">
        <ele>385.42</ele>
        <time>2018-02-08T15:19:30Z</time>
      </trkpt>
      <trkpt lat="48.3279" lon="6.85421">
        <ele>386.02</ele>
        <time>2018-02-08T15:19:31Z</time>
      </trkpt>
      <trkpt lat="48.32788" lon="6.85413">
        <ele>385.84</ele>
        <time>2018-02-08T15:19:35Z</time>
      </trkpt>
      <trkpt lat="48.32785" lon="6.85404">
        <ele>385.53</ele>
        <time>2018-02-08T15:19:40Z</time>
      </trkpt>
      <trkpt lat="48.32778" lon="6.85392">
        <ele>385.14</ele>
        <time>2018-02-08T15:19:54Z</time>
      </trkpt>
      <trkpt lat="48.32776" lon="6.85389">
        <ele>384.72</ele>
        <time>2018-02-08T15:19:56Z</time>
      </trkpt>
      <trkpt lat="48.3276" lon="6.85361">
        <ele>384.08</ele>
        <time>2018-02-08T15:20:12Z</time>
      </trkpt>
      <trkpt lat="48.32745" lon="6.85335">
        <ele>383.2</ele>
        <time>2018-02-08T15:20:27Z</time>
      </trkpt>
      <trkpt lat="48.32735" lon="6.85322">
        <ele>382.72</ele>
        <time>2018-02-08T15:20:41Z</time>
      </trkpt>
      <trkpt lat="48.3272" lon="6.85313">
        <ele>382.89</ele>
        <time>2018-02-08T15:20:54Z</time>
      </trkpt>
      <trkpt lat="48.32718" lon="6.85306">
        <ele>381.94</ele>
        <time>2018-02-08T15:21:08Z</time>
      </trkpt>
      <trkpt lat="48.32708" lon="6.85302">
        <ele>380.9</ele>
        <time>2018-02-08T15:21:23Z</time>
      </trkpt>
      <trkpt lat="48.32702" lon="6.85296">
        <ele>380</ele>
        <time>2018-02-08T15:21:31Z</time>
      </trkpt>
      <trkpt lat="48.32695" lon="6.85292">
        <ele>379.78</ele>
        <time>2018-02-08T15:21:36Z</time>
      </trkpt>
      <trkpt lat="48.32685" lon="6.85296">
        <ele>379.87</ele>
        <time>2018-02-08T15:21:43Z</time>
      </trkpt>
      <trkpt lat="48.32665" lon="6.85293">
        <ele>378.86</ele>
        <time>2018-02-08T15:22:00Z</time>
      </trkpt>
      <trkpt lat="48.32646" lon="6.8529">
        <ele>378.52</ele>
        <time>2018-02-08T15:22:14Z</time>
      </trkpt>
      <trkpt lat="48.3264" lon="6.85284">
        <ele>377.99</ele>
        <time>2018-02-08T15:22:20Z</time>
      </trkpt>
      <trkpt lat="48.32621" lon="6.85277">
        <ele>377.5</ele>
        <time>2018-02-08T15:22:35Z</time>
      </trkpt>
      <trkpt lat="48.32616" lon="6.85279">
        <ele>377.75</ele>
        <time>2018-02-08T15:22:52Z</time>
      </trkpt>
      <trkpt lat="48.32613" lon="6.85288">
        <ele>378.02</ele>
        <time>2018-02-08T15:23:04Z</time>
      </trkpt>
      <trkpt lat="48.32611" lon="6.85291">
        <ele>377.65</ele>
        <time>2018-02-08T15:23:16Z</time>
      </trkpt>
      <trkpt lat="48.32609" lon="6.85294">
        <ele>377.93</ele>
        <time>2018-02-08T15:23:18Z</time>
      </trkpt>
      <trkpt lat="48.32597" lon="6.85321">
        <ele>375.99</ele>
        <time>2018-02-08T15:23:41Z</time>
      </trkpt>
      <trkpt lat="48.32596" lon="6.85323">
        <ele>376.67</ele>
        <time>2018-02-08T15:23:42Z</time>
      </trkpt>
      <trkpt lat="48.32591" lon="6.85333">
        <ele>375.39</ele>
        <time>2018-02-08T15:23:50Z</time>
      </trkpt>
      <trkpt lat="48.32583" lon="6.8535">
        <ele>374.21</ele>
        <time>2018-02-08T15:24:03Z</time>
      </trkpt>
    </trkseg>
  </trk>
</gpx>